<?xml version="1.0" encoding="UTF-8" standalone="no" ?>
<gpx xmlns="http://www.topografix.com/GPX/1/1" xmlns:xsi="http://www.w3.org/2001/XMLSchema-instance" xsi:schemaLocation="http://www.topografix.com/GPX/1/1 http://www.topografix.com/GPX/1/1/gpx.xsd" version="1.1" creator="VisuGPX - https://www.visugpx.com">
  <metadata>
    <name>Saverne - Ottersthal</name>
    <desc><![CDATA[Boucle de 14 km 
Saverne
Fontaine Mélanie
Ottersthal]]></desc>
  </metadata>
  <trk>
    <name><![CDATA[ADi2010/08/10_18:07]]></name>
    <trkseg>
      <trkpt lat="48.74092" lon="7.3588">
        <ele>198.356201</ele>
        <time>2010-08-10T16:27:14Z</time>
      </trkpt>
      <trkpt lat="48.74078" lon="7.35808">
        <ele>200.30542</ele>
        <time>2010-08-10T16:27:23Z</time>
      </trkpt>
      <trkpt lat="48.74089" lon="7.35794">
        <ele>201.74292</ele>
        <time>2010-08-10T16:27:27Z</time>
      </trkpt>
      <trkpt lat="48.74102" lon="7.35786">
        <ele>202.528076</ele>
        <time>2010-08-10T16:27:30Z</time>
      </trkpt>
      <trkpt lat="48.74112" lon="7.35772">
        <ele>201.551514</ele>
        <time>2010-08-10T16:27:34Z</time>
      </trkpt>
      <trkpt lat="48.74112" lon="7.3575">
        <ele>201.18042</ele>
        <time>2010-08-10T16:27:37Z</time>
      </trkpt>
      <trkpt lat="48.7411" lon="7.35728">
        <ele>199.887451</ele>
        <time>2010-08-10T16:27:40Z</time>
      </trkpt>
      <trkpt lat="48.74108" lon="7.357">
        <ele>198.641357</ele>
        <time>2010-08-10T16:27:43Z</time>
      </trkpt>
      <trkpt lat="48.74107" lon="7.35675">
        <ele>197.64917</ele>
        <time>2010-08-10T16:27:46Z</time>
      </trkpt>
      <trkpt lat="48.74106" lon="7.3565">
        <ele>195.688232</ele>
        <time>2010-08-10T16:27:49Z</time>
      </trkpt>
      <trkpt lat="48.74107" lon="7.35626">
        <ele>195.090576</ele>
        <time>2010-08-10T16:27:52Z</time>
      </trkpt>
      <trkpt lat="48.74108" lon="7.35605">
        <ele>195.043701</ele>
        <time>2010-08-10T16:27:55Z</time>
      </trkpt>
      <trkpt lat="48.74109" lon="7.35581">
        <ele>195.082764</ele>
        <time>2010-08-10T16:27:59Z</time>
      </trkpt>
      <trkpt lat="48.7411" lon="7.35556">
        <ele>194.688232</ele>
        <time>2010-08-10T16:28:03Z</time>
      </trkpt>
      <trkpt lat="48.74113" lon="7.35535">
        <ele>194.485107</ele>
        <time>2010-08-10T16:28:07Z</time>
      </trkpt>
      <trkpt lat="48.74128" lon="7.35526">
        <ele>192.102295</ele>
        <time>2010-08-10T16:28:11Z</time>
      </trkpt>
      <trkpt lat="48.7414" lon="7.35516">
        <ele>190.176514</ele>
        <time>2010-08-10T16:28:27Z</time>
      </trkpt>
      <trkpt lat="48.7414" lon="7.35494">
        <ele>189.360107</ele>
        <time>2010-08-10T16:28:30Z</time>
      </trkpt>
      <trkpt lat="48.74138" lon="7.35467">
        <ele>189.637451</ele>
        <time>2010-08-10T16:28:33Z</time>
      </trkpt>
      <trkpt lat="48.74137" lon="7.35438">
        <ele>190.153076</ele>
        <time>2010-08-10T16:28:36Z</time>
      </trkpt>
      <trkpt lat="48.74137" lon="7.35408">
        <ele>189.879639</ele>
        <time>2010-08-10T16:28:39Z</time>
      </trkpt>
      <trkpt lat="48.74136" lon="7.35388">
        <ele>189.879639</ele>
        <time>2010-08-10T16:28:41Z</time>
      </trkpt>
      <trkpt lat="48.74135" lon="7.35358">
        <ele>189.24292</ele>
        <time>2010-08-10T16:28:44Z</time>
      </trkpt>
      <trkpt lat="48.74134" lon="7.35338">
        <ele>188.914795</ele>
        <time>2010-08-10T16:28:46Z</time>
      </trkpt>
      <trkpt lat="48.74131" lon="7.35308">
        <ele>188.942139</ele>
        <time>2010-08-10T16:28:49Z</time>
      </trkpt>
      <trkpt lat="48.74133" lon="7.35278">
        <ele>188.906982</ele>
        <time>2010-08-10T16:28:52Z</time>
      </trkpt>
      <trkpt lat="48.74132" lon="7.3525">
        <ele>189.324951</ele>
        <time>2010-08-10T16:28:55Z</time>
      </trkpt>
      <trkpt lat="48.7413" lon="7.35221">
        <ele>189.172607</ele>
        <time>2010-08-10T16:28:58Z</time>
      </trkpt>
      <trkpt lat="48.7413" lon="7.35193">
        <ele>189.067139</ele>
        <time>2010-08-10T16:29:01Z</time>
      </trkpt>
      <trkpt lat="48.74129" lon="7.35165">
        <ele>188.875732</ele>
        <time>2010-08-10T16:29:04Z</time>
      </trkpt>
      <trkpt lat="48.74139" lon="7.35145">
        <ele>188.39917</ele>
        <time>2010-08-10T16:29:07Z</time>
      </trkpt>
      <trkpt lat="48.74151" lon="7.35132">
        <ele>187.996826</ele>
        <time>2010-08-10T16:29:10Z</time>
      </trkpt>
      <trkpt lat="48.74168" lon="7.35129">
        <ele>186.203857</ele>
        <time>2010-08-10T16:29:14Z</time>
      </trkpt>
      <trkpt lat="48.74184" lon="7.35135">
        <ele>184.035889</ele>
        <time>2010-08-10T16:29:18Z</time>
      </trkpt>
      <trkpt lat="48.74199" lon="7.35138">
        <ele>182.758545</ele>
        <time>2010-08-10T16:29:21Z</time>
      </trkpt>
      <trkpt lat="48.74212" lon="7.35135">
        <ele>189.86792</ele>
        <time>2010-08-10T16:29:24Z</time>
      </trkpt>
      <trkpt lat="48.74227" lon="7.35128">
        <ele>192.465576</ele>
        <time>2010-08-10T16:29:28Z</time>
      </trkpt>
      <trkpt lat="48.74218" lon="7.35109">
        <ele>195.723389</ele>
        <time>2010-08-10T16:29:33Z</time>
      </trkpt>
      <trkpt lat="48.74207" lon="7.35088">
        <ele>198.008545</ele>
        <time>2010-08-10T16:29:37Z</time>
      </trkpt>
      <trkpt lat="48.74196" lon="7.35071">
        <ele>198.52417</ele>
        <time>2010-08-10T16:29:40Z</time>
      </trkpt>
      <trkpt lat="48.74186" lon="7.35053">
        <ele>199.477295</ele>
        <time>2010-08-10T16:29:43Z</time>
      </trkpt>
      <trkpt lat="48.74175" lon="7.35035">
        <ele>196.996826</ele>
        <time>2010-08-10T16:29:46Z</time>
      </trkpt>
      <trkpt lat="48.74165" lon="7.35019">
        <ele>196.18042</ele>
        <time>2010-08-10T16:29:49Z</time>
      </trkpt>
      <trkpt lat="48.74155" lon="7.35002">
        <ele>195.309326</ele>
        <time>2010-08-10T16:29:52Z</time>
      </trkpt>
      <trkpt lat="48.74146" lon="7.34986">
        <ele>194.887451</ele>
        <time>2010-08-10T16:29:55Z</time>
      </trkpt>
      <trkpt lat="48.74136" lon="7.3497">
        <ele>195.434326</ele>
        <time>2010-08-10T16:29:58Z</time>
      </trkpt>
      <trkpt lat="48.74125" lon="7.34955">
        <ele>193.418701</ele>
        <time>2010-08-10T16:30:01Z</time>
      </trkpt>
      <trkpt lat="48.74115" lon="7.3494">
        <ele>192.785889</ele>
        <time>2010-08-10T16:30:04Z</time>
      </trkpt>
      <trkpt lat="48.74105" lon="7.34923">
        <ele>192.30542</ele>
        <time>2010-08-10T16:30:07Z</time>
      </trkpt>
      <trkpt lat="48.74094" lon="7.34908">
        <ele>192.028076</ele>
        <time>2010-08-10T16:30:10Z</time>
      </trkpt>
      <trkpt lat="48.74082" lon="7.34892">
        <ele>192.879639</ele>
        <time>2010-08-10T16:30:13Z</time>
      </trkpt>
      <trkpt lat="48.74073" lon="7.34876">
        <ele>195.33667</ele>
        <time>2010-08-10T16:30:16Z</time>
      </trkpt>
      <trkpt lat="48.74063" lon="7.34854">
        <ele>196.375732</ele>
        <time>2010-08-10T16:30:20Z</time>
      </trkpt>
      <trkpt lat="48.74062" lon="7.34832">
        <ele>196.172607</ele>
        <time>2010-08-10T16:30:24Z</time>
      </trkpt>
      <trkpt lat="48.7407" lon="7.34812">
        <ele>196.133545</ele>
        <time>2010-08-10T16:30:28Z</time>
      </trkpt>
      <trkpt lat="48.74081" lon="7.34798">
        <ele>196.801514</ele>
        <time>2010-08-10T16:30:31Z</time>
      </trkpt>
      <trkpt lat="48.74068" lon="7.34779">
        <ele>195.235107</ele>
        <time>2010-08-10T16:30:37Z</time>
      </trkpt>
      <trkpt lat="48.74051" lon="7.34767">
        <ele>195.481201</ele>
        <time>2010-08-10T16:30:40Z</time>
      </trkpt>
      <trkpt lat="48.74031" lon="7.34755">
        <ele>194.840576</ele>
        <time>2010-08-10T16:30:43Z</time>
      </trkpt>
      <trkpt lat="48.74014" lon="7.34747">
        <ele>194.594482</ele>
        <time>2010-08-10T16:30:46Z</time>
      </trkpt>
      <trkpt lat="48.73998" lon="7.34736">
        <ele>194.078857</ele>
        <time>2010-08-10T16:30:49Z</time>
      </trkpt>
      <trkpt lat="48.73988" lon="7.34718">
        <ele>194.36792</ele>
        <time>2010-08-10T16:30:52Z</time>
      </trkpt>
      <trkpt lat="48.73977" lon="7.34704">
        <ele>193.410889</ele>
        <time>2010-08-10T16:30:54Z</time>
      </trkpt>
      <trkpt lat="48.73963" lon="7.34687">
        <ele>192.926514</ele>
        <time>2010-08-10T16:30:57Z</time>
      </trkpt>
      <trkpt lat="48.73948" lon="7.34684">
        <ele>191.856201</ele>
        <time>2010-08-10T16:31:00Z</time>
      </trkpt>
      <trkpt lat="48.73933" lon="7.34683">
        <ele>191.266357</ele>
        <time>2010-08-10T16:31:04Z</time>
      </trkpt>
      <trkpt lat="48.73924" lon="7.34667">
        <ele>191.289795</ele>
        <time>2010-08-10T16:31:09Z</time>
      </trkpt>
      <trkpt lat="48.73912" lon="7.34651">
        <ele>192.645264</ele>
        <time>2010-08-10T16:31:13Z</time>
      </trkpt>
      <trkpt lat="48.73899" lon="7.34634">
        <ele>192.02417</ele>
        <time>2010-08-10T16:31:17Z</time>
      </trkpt>
      <trkpt lat="48.73892" lon="7.34611">
        <ele>191.828857</ele>
        <time>2010-08-10T16:31:21Z</time>
      </trkpt>
      <trkpt lat="48.73892" lon="7.34587">
        <ele>191.383545</ele>
        <time>2010-08-10T16:31:25Z</time>
      </trkpt>
      <trkpt lat="48.73892" lon="7.34565">
        <ele>191.203857</ele>
        <time>2010-08-10T16:31:29Z</time>
      </trkpt>
      <trkpt lat="48.73896" lon="7.34544">
        <ele>190.996826</ele>
        <time>2010-08-10T16:31:33Z</time>
      </trkpt>
      <trkpt lat="48.73901" lon="7.34521">
        <ele>191.281982</ele>
        <time>2010-08-10T16:31:37Z</time>
      </trkpt>
      <trkpt lat="48.73906" lon="7.34497">
        <ele>192.020264</ele>
        <time>2010-08-10T16:31:41Z</time>
      </trkpt>
      <trkpt lat="48.73909" lon="7.34476">
        <ele>193.14917</ele>
        <time>2010-08-10T16:31:45Z</time>
      </trkpt>
      <trkpt lat="48.73911" lon="7.34454">
        <ele>195.633545</ele>
        <time>2010-08-10T16:31:51Z</time>
      </trkpt>
      <trkpt lat="48.73912" lon="7.34433">
        <ele>196.879639</ele>
        <time>2010-08-10T16:31:56Z</time>
      </trkpt>
      <trkpt lat="48.73916" lon="7.3441">
        <ele>199.074951</ele>
        <time>2010-08-10T16:32:02Z</time>
      </trkpt>
      <trkpt lat="48.73921" lon="7.3439">
        <ele>199.520264</ele>
        <time>2010-08-10T16:32:06Z</time>
      </trkpt>
      <trkpt lat="48.73924" lon="7.34369">
        <ele>202.000732</ele>
        <time>2010-08-10T16:32:11Z</time>
      </trkpt>
      <trkpt lat="48.73925" lon="7.34346">
        <ele>204.067139</ele>
        <time>2010-08-10T16:32:16Z</time>
      </trkpt>
      <trkpt lat="48.73924" lon="7.34324">
        <ele>204.637451</ele>
        <time>2010-08-10T16:32:21Z</time>
      </trkpt>
      <trkpt lat="48.73921" lon="7.343">
        <ele>204.598389</ele>
        <time>2010-08-10T16:32:27Z</time>
      </trkpt>
      <trkpt lat="48.73919" lon="7.34276">
        <ele>206.574951</ele>
        <time>2010-08-10T16:32:33Z</time>
      </trkpt>
      <trkpt lat="48.73919" lon="7.34256">
        <ele>207.864014</ele>
        <time>2010-08-10T16:32:37Z</time>
      </trkpt>
      <trkpt lat="48.7392" lon="7.3423">
        <ele>210.406982</ele>
        <time>2010-08-10T16:32:43Z</time>
      </trkpt>
      <trkpt lat="48.73922" lon="7.3421">
        <ele>211.625732</ele>
        <time>2010-08-10T16:32:48Z</time>
      </trkpt>
      <trkpt lat="48.73926" lon="7.34188">
        <ele>215.813232</ele>
        <time>2010-08-10T16:32:54Z</time>
      </trkpt>
      <trkpt lat="48.73926" lon="7.34165">
        <ele>220.539795</ele>
        <time>2010-08-10T16:33:01Z</time>
      </trkpt>
      <trkpt lat="48.73926" lon="7.34144">
        <ele>222.215576</ele>
        <time>2010-08-10T16:33:07Z</time>
      </trkpt>
      <trkpt lat="48.73924" lon="7.34121">
        <ele>224.699951</ele>
        <time>2010-08-10T16:33:15Z</time>
      </trkpt>
      <trkpt lat="48.73923" lon="7.34097">
        <ele>225.699951</ele>
        <time>2010-08-10T16:33:22Z</time>
      </trkpt>
      <trkpt lat="48.73923" lon="7.34076">
        <ele>228.766357</ele>
        <time>2010-08-10T16:33:30Z</time>
      </trkpt>
      <trkpt lat="48.73924" lon="7.34053">
        <ele>230.789795</ele>
        <time>2010-08-10T16:33:38Z</time>
      </trkpt>
      <trkpt lat="48.73924" lon="7.3403">
        <ele>231.039795</ele>
        <time>2010-08-10T16:33:45Z</time>
      </trkpt>
      <trkpt lat="48.73925" lon="7.34008">
        <ele>233.871826</ele>
        <time>2010-08-10T16:33:53Z</time>
      </trkpt>
      <trkpt lat="48.73929" lon="7.33988">
        <ele>234.754639</ele>
        <time>2010-08-10T16:33:59Z</time>
      </trkpt>
      <trkpt lat="48.73935" lon="7.33969">
        <ele>237.887451</ele>
        <time>2010-08-10T16:34:05Z</time>
      </trkpt>
      <trkpt lat="48.7394" lon="7.3395">
        <ele>239.352295</ele>
        <time>2010-08-10T16:34:12Z</time>
      </trkpt>
      <trkpt lat="48.73947" lon="7.3393">
        <ele>239.821045</ele>
        <time>2010-08-10T16:34:20Z</time>
      </trkpt>
      <trkpt lat="48.7395" lon="7.33909">
        <ele>240.89917</ele>
        <time>2010-08-10T16:34:28Z</time>
      </trkpt>
      <trkpt lat="48.73954" lon="7.33889">
        <ele>241.953857</ele>
        <time>2010-08-10T16:34:36Z</time>
      </trkpt>
      <trkpt lat="48.73959" lon="7.33868">
        <ele>241.008545</ele>
        <time>2010-08-10T16:34:45Z</time>
      </trkpt>
      <trkpt lat="48.73966" lon="7.33849">
        <ele>243.21167</ele>
        <time>2010-08-10T16:34:53Z</time>
      </trkpt>
      <trkpt lat="48.73972" lon="7.33829">
        <ele>243.86792</ele>
        <time>2010-08-10T16:35:02Z</time>
      </trkpt>
      <trkpt lat="48.73977" lon="7.3381">
        <ele>245.43042</ele>
        <time>2010-08-10T16:35:11Z</time>
      </trkpt>
      <trkpt lat="48.73981" lon="7.33788">
        <ele>246.145264</ele>
        <time>2010-08-10T16:35:18Z</time>
      </trkpt>
      <trkpt lat="48.73986" lon="7.33768">
        <ele>247.793701</ele>
        <time>2010-08-10T16:35:24Z</time>
      </trkpt>
      <trkpt lat="48.73993" lon="7.33747">
        <ele>249.227295</ele>
        <time>2010-08-10T16:35:31Z</time>
      </trkpt>
      <trkpt lat="48.73997" lon="7.33725">
        <ele>251.981201</ele>
        <time>2010-08-10T16:35:37Z</time>
      </trkpt>
      <trkpt lat="48.74003" lon="7.33707">
        <ele>254.074951</ele>
        <time>2010-08-10T16:35:42Z</time>
      </trkpt>
      <trkpt lat="48.74009" lon="7.33685">
        <ele>256.48584</ele>
        <time>2010-08-10T16:35:48Z</time>
      </trkpt>
      <trkpt lat="48.74016" lon="7.33667">
        <ele>256.92334</ele>
        <time>2010-08-10T16:35:54Z</time>
      </trkpt>
      <trkpt lat="48.74018" lon="7.33645">
        <ele>256.970215</ele>
        <time>2010-08-10T16:36:01Z</time>
      </trkpt>
      <trkpt lat="48.74018" lon="7.33621">
        <ele>259.978027</ele>
        <time>2010-08-10T16:36:06Z</time>
      </trkpt>
      <trkpt lat="48.74015" lon="7.33599">
        <ele>260.313965</ele>
        <time>2010-08-10T16:36:10Z</time>
      </trkpt>
      <trkpt lat="48.74014" lon="7.33575">
        <ele>261.095215</ele>
        <time>2010-08-10T16:36:14Z</time>
      </trkpt>
      <trkpt lat="48.74014" lon="7.3355">
        <ele>259.970215</ele>
        <time>2010-08-10T16:36:18Z</time>
      </trkpt>
      <trkpt lat="48.74017" lon="7.33529">
        <ele>260.76709</ele>
        <time>2010-08-10T16:36:21Z</time>
      </trkpt>
      <trkpt lat="48.74019" lon="7.33505">
        <ele>261.321777</ele>
        <time>2010-08-10T16:36:25Z</time>
      </trkpt>
      <trkpt lat="48.74022" lon="7.33481">
        <ele>262.024902</ele>
        <time>2010-08-10T16:36:29Z</time>
      </trkpt>
      <trkpt lat="48.74026" lon="7.33457">
        <ele>263.07959</ele>
        <time>2010-08-10T16:36:33Z</time>
      </trkpt>
      <trkpt lat="48.74031" lon="7.33438">
        <ele>263.126465</ele>
        <time>2010-08-10T16:36:36Z</time>
      </trkpt>
      <trkpt lat="48.74035" lon="7.33418">
        <ele>263.196777</ele>
        <time>2010-08-10T16:36:39Z</time>
      </trkpt>
      <trkpt lat="48.7404" lon="7.33397">
        <ele>262.157715</ele>
        <time>2010-08-10T16:36:42Z</time>
      </trkpt>
      <trkpt lat="48.74043" lon="7.33374">
        <ele>262.01709</ele>
        <time>2010-08-10T16:36:46Z</time>
      </trkpt>
      <trkpt lat="48.74048" lon="7.33354">
        <ele>262.032715</ele>
        <time>2010-08-10T16:36:49Z</time>
      </trkpt>
      <trkpt lat="48.74052" lon="7.33329">
        <ele>261.251465</ele>
        <time>2010-08-10T16:36:53Z</time>
      </trkpt>
      <trkpt lat="48.74055" lon="7.33308">
        <ele>260.688965</ele>
        <time>2010-08-10T16:36:56Z</time>
      </trkpt>
      <trkpt lat="48.74056" lon="7.33283">
        <ele>260.321777</ele>
        <time>2010-08-10T16:37:00Z</time>
      </trkpt>
      <trkpt lat="48.74054" lon="7.33258">
        <ele>258.571777</ele>
        <time>2010-08-10T16:37:04Z</time>
      </trkpt>
      <trkpt lat="48.74052" lon="7.33237">
        <ele>256.603027</ele>
        <time>2010-08-10T16:37:07Z</time>
      </trkpt>
      <trkpt lat="48.74055" lon="7.33216">
        <ele>254.934326</ele>
        <time>2010-08-10T16:37:10Z</time>
      </trkpt>
      <trkpt lat="48.74058" lon="7.33196">
        <ele>253.543701</ele>
        <time>2010-08-10T16:37:13Z</time>
      </trkpt>
      <trkpt lat="48.74063" lon="7.33173">
        <ele>250.301514</ele>
        <time>2010-08-10T16:37:16Z</time>
      </trkpt>
      <trkpt lat="48.74069" lon="7.33152">
        <ele>247.469482</ele>
        <time>2010-08-10T16:37:19Z</time>
      </trkpt>
      <trkpt lat="48.74075" lon="7.33133">
        <ele>247.188232</ele>
        <time>2010-08-10T16:37:22Z</time>
      </trkpt>
      <trkpt lat="48.74082" lon="7.33114">
        <ele>247.977295</ele>
        <time>2010-08-10T16:37:25Z</time>
      </trkpt>
      <trkpt lat="48.74086" lon="7.33094">
        <ele>248.512451</ele>
        <time>2010-08-10T16:37:28Z</time>
      </trkpt>
      <trkpt lat="48.74089" lon="7.33074">
        <ele>248.985107</ele>
        <time>2010-08-10T16:37:31Z</time>
      </trkpt>
      <trkpt lat="48.74094" lon="7.3305">
        <ele>249.821045</ele>
        <time>2010-08-10T16:37:35Z</time>
      </trkpt>
      <trkpt lat="48.74096" lon="7.33029">
        <ele>250.395264</ele>
        <time>2010-08-10T16:37:38Z</time>
      </trkpt>
      <trkpt lat="48.74094" lon="7.33006">
        <ele>247.582764</ele>
        <time>2010-08-10T16:37:41Z</time>
      </trkpt>
      <trkpt lat="48.74094" lon="7.32979">
        <ele>245.485107</ele>
        <time>2010-08-10T16:37:45Z</time>
      </trkpt>
      <trkpt lat="48.74103" lon="7.32961">
        <ele>245.660889</ele>
        <time>2010-08-10T16:37:48Z</time>
      </trkpt>
      <trkpt lat="48.74104" lon="7.32935">
        <ele>245.496826</ele>
        <time>2010-08-10T16:37:52Z</time>
      </trkpt>
      <trkpt lat="48.74109" lon="7.32911">
        <ele>244.231201</ele>
        <time>2010-08-10T16:37:55Z</time>
      </trkpt>
      <trkpt lat="48.7411" lon="7.32887">
        <ele>243.176514</ele>
        <time>2010-08-10T16:37:58Z</time>
      </trkpt>
      <trkpt lat="48.74111" lon="7.32863">
        <ele>243.340576</ele>
        <time>2010-08-10T16:38:01Z</time>
      </trkpt>
      <trkpt lat="48.74111" lon="7.32838">
        <ele>244.227295</ele>
        <time>2010-08-10T16:38:04Z</time>
      </trkpt>
      <trkpt lat="48.74117" lon="7.32813">
        <ele>246.891357</ele>
        <time>2010-08-10T16:38:08Z</time>
      </trkpt>
      <trkpt lat="48.7412" lon="7.32786">
        <ele>249.129639</ele>
        <time>2010-08-10T16:38:11Z</time>
      </trkpt>
      <trkpt lat="48.74125" lon="7.32767">
        <ele>253.340576</ele>
        <time>2010-08-10T16:38:14Z</time>
      </trkpt>
      <trkpt lat="48.74125" lon="7.32741">
        <ele>256.51709</ele>
        <time>2010-08-10T16:38:17Z</time>
      </trkpt>
      <trkpt lat="48.74128" lon="7.32715">
        <ele>257.76709</ele>
        <time>2010-08-10T16:38:21Z</time>
      </trkpt>
      <trkpt lat="48.74133" lon="7.32695">
        <ele>259.212402</ele>
        <time>2010-08-10T16:38:24Z</time>
      </trkpt>
      <trkpt lat="48.74136" lon="7.32673">
        <ele>258.884277</ele>
        <time>2010-08-10T16:38:27Z</time>
      </trkpt>
      <trkpt lat="48.74144" lon="7.32653">
        <ele>260.51709</ele>
        <time>2010-08-10T16:38:30Z</time>
      </trkpt>
      <trkpt lat="48.74147" lon="7.32628">
        <ele>260.899902</ele>
        <time>2010-08-10T16:38:33Z</time>
      </trkpt>
      <trkpt lat="48.74152" lon="7.32608">
        <ele>259.11084</ele>
        <time>2010-08-10T16:38:35Z</time>
      </trkpt>
      <trkpt lat="48.74157" lon="7.32586">
        <ele>260.063965</ele>
        <time>2010-08-10T16:38:37Z</time>
      </trkpt>
      <trkpt lat="48.74163" lon="7.32561">
        <ele>259.36084</ele>
        <time>2010-08-10T16:38:40Z</time>
      </trkpt>
      <trkpt lat="48.74168" lon="7.32539">
        <ele>260.532715</ele>
        <time>2010-08-10T16:38:43Z</time>
      </trkpt>
      <trkpt lat="48.74173" lon="7.32516">
        <ele>260.595215</ele>
        <time>2010-08-10T16:38:46Z</time>
      </trkpt>
      <trkpt lat="48.74184" lon="7.32497">
        <ele>259.618652</ele>
        <time>2010-08-10T16:38:48Z</time>
      </trkpt>
      <trkpt lat="48.74193" lon="7.32481">
        <ele>259.51709</ele>
        <time>2010-08-10T16:38:50Z</time>
      </trkpt>
      <trkpt lat="48.74203" lon="7.3246">
        <ele>258.196777</ele>
        <time>2010-08-10T16:38:53Z</time>
      </trkpt>
      <trkpt lat="48.74217" lon="7.32439">
        <ele>257.57959</ele>
        <time>2010-08-10T16:38:56Z</time>
      </trkpt>
      <trkpt lat="48.74226" lon="7.3242">
        <ele>257.134277</ele>
        <time>2010-08-10T16:38:59Z</time>
      </trkpt>
      <trkpt lat="48.74237" lon="7.32406">
        <ele>257.149902</ele>
        <time>2010-08-10T16:39:02Z</time>
      </trkpt>
      <trkpt lat="48.74251" lon="7.32388">
        <ele>255.516357</ele>
        <time>2010-08-10T16:39:06Z</time>
      </trkpt>
      <trkpt lat="48.74262" lon="7.32375">
        <ele>255.125732</ele>
        <time>2010-08-10T16:39:10Z</time>
      </trkpt>
      <trkpt lat="48.74274" lon="7.32362">
        <ele>253.707764</ele>
        <time>2010-08-10T16:39:14Z</time>
      </trkpt>
      <trkpt lat="48.74286" lon="7.32347">
        <ele>253.059326</ele>
        <time>2010-08-10T16:39:19Z</time>
      </trkpt>
      <trkpt lat="48.74298" lon="7.32332">
        <ele>251.637451</ele>
        <time>2010-08-10T16:39:23Z</time>
      </trkpt>
      <trkpt lat="48.74311" lon="7.32324">
        <ele>251.090576</ele>
        <time>2010-08-10T16:39:26Z</time>
      </trkpt>
      <trkpt lat="48.74325" lon="7.32311">
        <ele>249.828857</ele>
        <time>2010-08-10T16:39:30Z</time>
      </trkpt>
      <trkpt lat="48.74336" lon="7.32295">
        <ele>247.981201</ele>
        <time>2010-08-10T16:39:34Z</time>
      </trkpt>
      <trkpt lat="48.74344" lon="7.32277">
        <ele>246.145264</ele>
        <time>2010-08-10T16:39:39Z</time>
      </trkpt>
      <trkpt lat="48.74353" lon="7.3226">
        <ele>243.414795</ele>
        <time>2010-08-10T16:39:44Z</time>
      </trkpt>
      <trkpt lat="48.74364" lon="7.32243">
        <ele>246.246826</ele>
        <time>2010-08-10T16:39:48Z</time>
      </trkpt>
      <trkpt lat="48.74375" lon="7.32232">
        <ele>246.235107</ele>
        <time>2010-08-10T16:39:53Z</time>
      </trkpt>
      <trkpt lat="48.74387" lon="7.32221">
        <ele>246.453857</ele>
        <time>2010-08-10T16:39:58Z</time>
      </trkpt>
      <trkpt lat="48.74399" lon="7.32207">
        <ele>244.637451</ele>
        <time>2010-08-10T16:40:06Z</time>
      </trkpt>
      <trkpt lat="48.74411" lon="7.32198">
        <ele>246.594482</ele>
        <time>2010-08-10T16:40:12Z</time>
      </trkpt>
      <trkpt lat="48.74423" lon="7.32189">
        <ele>246.145264</ele>
        <time>2010-08-10T16:40:18Z</time>
      </trkpt>
      <trkpt lat="48.74437" lon="7.3218">
        <ele>245.832764</ele>
        <time>2010-08-10T16:40:25Z</time>
      </trkpt>
      <trkpt lat="48.74451" lon="7.32173">
        <ele>246.270264</ele>
        <time>2010-08-10T16:40:29Z</time>
      </trkpt>
      <trkpt lat="48.74464" lon="7.32167">
        <ele>246.14917</ele>
        <time>2010-08-10T16:40:37Z</time>
      </trkpt>
      <trkpt lat="48.74478" lon="7.32166">
        <ele>245.58667</ele>
        <time>2010-08-10T16:40:46Z</time>
      </trkpt>
      <trkpt lat="48.74493" lon="7.32159">
        <ele>247.21167</ele>
        <time>2010-08-10T16:40:56Z</time>
      </trkpt>
      <trkpt lat="48.74507" lon="7.32149">
        <ele>247.531982</ele>
        <time>2010-08-10T16:41:08Z</time>
      </trkpt>
      <trkpt lat="48.7452" lon="7.32145">
        <ele>247.824951</ele>
        <time>2010-08-10T16:41:16Z</time>
      </trkpt>
      <trkpt lat="48.74536" lon="7.32145">
        <ele>247.094482</ele>
        <time>2010-08-10T16:41:24Z</time>
      </trkpt>
      <trkpt lat="48.7455" lon="7.32144">
        <ele>247.239014</ele>
        <time>2010-08-10T16:41:31Z</time>
      </trkpt>
      <trkpt lat="48.74565" lon="7.3214">
        <ele>249.406982</ele>
        <time>2010-08-10T16:41:38Z</time>
      </trkpt>
      <trkpt lat="48.74579" lon="7.32135">
        <ele>252.227295</ele>
        <time>2010-08-10T16:41:44Z</time>
      </trkpt>
      <trkpt lat="48.74591" lon="7.3213">
        <ele>254.645264</ele>
        <time>2010-08-10T16:41:50Z</time>
      </trkpt>
      <trkpt lat="48.74606" lon="7.32125">
        <ele>256.384277</ele>
        <time>2010-08-10T16:41:57Z</time>
      </trkpt>
      <trkpt lat="48.74617" lon="7.32112">
        <ele>255.598389</ele>
        <time>2010-08-10T16:42:05Z</time>
      </trkpt>
      <trkpt lat="48.74632" lon="7.32106">
        <ele>257.056152</ele>
        <time>2010-08-10T16:42:10Z</time>
      </trkpt>
      <trkpt lat="48.74646" lon="7.32101">
        <ele>258.181152</ele>
        <time>2010-08-10T16:42:19Z</time>
      </trkpt>
      <trkpt lat="48.7466" lon="7.32097">
        <ele>257.86084</ele>
        <time>2010-08-10T16:42:25Z</time>
      </trkpt>
      <trkpt lat="48.74677" lon="7.32092">
        <ele>259.228027</ele>
        <time>2010-08-10T16:42:32Z</time>
      </trkpt>
      <trkpt lat="48.7469" lon="7.32088">
        <ele>259.73584</ele>
        <time>2010-08-10T16:42:39Z</time>
      </trkpt>
      <trkpt lat="48.74704" lon="7.32084">
        <ele>262.009277</ele>
        <time>2010-08-10T16:42:46Z</time>
      </trkpt>
      <trkpt lat="48.74718" lon="7.32082">
        <ele>263.399902</ele>
        <time>2010-08-10T16:42:54Z</time>
      </trkpt>
      <trkpt lat="48.74733" lon="7.32084">
        <ele>265.376465</ele>
        <time>2010-08-10T16:43:03Z</time>
      </trkpt>
      <trkpt lat="48.74748" lon="7.3208">
        <ele>270.087402</ele>
        <time>2010-08-10T16:43:11Z</time>
      </trkpt>
      <trkpt lat="48.74762" lon="7.3208">
        <ele>270.501465</ele>
        <time>2010-08-10T16:43:16Z</time>
      </trkpt>
      <trkpt lat="48.74777" lon="7.32076">
        <ele>272.001465</ele>
        <time>2010-08-10T16:43:22Z</time>
      </trkpt>
      <trkpt lat="48.7479" lon="7.32072">
        <ele>271.595215</ele>
        <time>2010-08-10T16:43:29Z</time>
      </trkpt>
      <trkpt lat="48.74806" lon="7.32069">
        <ele>270.970215</ele>
        <time>2010-08-10T16:43:36Z</time>
      </trkpt>
      <trkpt lat="48.7482" lon="7.32063">
        <ele>274.86084</ele>
        <time>2010-08-10T16:43:43Z</time>
      </trkpt>
      <trkpt lat="48.74834" lon="7.32053">
        <ele>272.79834</ele>
        <time>2010-08-10T16:43:50Z</time>
      </trkpt>
      <trkpt lat="48.74847" lon="7.32047">
        <ele>273.368652</ele>
        <time>2010-08-10T16:43:54Z</time>
      </trkpt>
      <trkpt lat="48.74862" lon="7.32042">
        <ele>272.024902</ele>
        <time>2010-08-10T16:44:00Z</time>
      </trkpt>
      <trkpt lat="48.74876" lon="7.3204">
        <ele>272.087402</ele>
        <time>2010-08-10T16:44:06Z</time>
      </trkpt>
      <trkpt lat="48.74891" lon="7.32037">
        <ele>271.024902</ele>
        <time>2010-08-10T16:44:12Z</time>
      </trkpt>
      <trkpt lat="48.74906" lon="7.32034">
        <ele>267.306152</ele>
        <time>2010-08-10T16:44:18Z</time>
      </trkpt>
      <trkpt lat="48.7492" lon="7.32027">
        <ele>264.853027</ele>
        <time>2010-08-10T16:44:24Z</time>
      </trkpt>
      <trkpt lat="48.74933" lon="7.32019">
        <ele>262.399902</ele>
        <time>2010-08-10T16:44:31Z</time>
      </trkpt>
      <trkpt lat="48.74945" lon="7.32012">
        <ele>259.821777</ele>
        <time>2010-08-10T16:44:39Z</time>
      </trkpt>
      <trkpt lat="48.7496" lon="7.32008">
        <ele>259.720215</ele>
        <time>2010-08-10T16:44:49Z</time>
      </trkpt>
      <trkpt lat="48.74974" lon="7.32006">
        <ele>256.884277</ele>
        <time>2010-08-10T16:44:59Z</time>
      </trkpt>
      <trkpt lat="48.74987" lon="7.32005">
        <ele>255.328857</ele>
        <time>2010-08-10T16:45:11Z</time>
      </trkpt>
      <trkpt lat="48.75001" lon="7.31999">
        <ele>258.603027</ele>
        <time>2010-08-10T16:45:21Z</time>
      </trkpt>
      <trkpt lat="48.75011" lon="7.31989">
        <ele>267.57959</ele>
        <time>2010-08-10T16:45:30Z</time>
      </trkpt>
      <trkpt lat="48.75021" lon="7.31979">
        <ele>274.938965</ele>
        <time>2010-08-10T16:45:43Z</time>
      </trkpt>
      <trkpt lat="48.75037" lon="7.31975">
        <ele>277.806152</ele>
        <time>2010-08-10T16:45:58Z</time>
      </trkpt>
      <trkpt lat="48.75051" lon="7.3197">
        <ele>280.51709</ele>
        <time>2010-08-10T16:46:10Z</time>
      </trkpt>
      <trkpt lat="48.75064" lon="7.31961">
        <ele>285.524902</ele>
        <time>2010-08-10T16:46:22Z</time>
      </trkpt>
      <trkpt lat="48.75077" lon="7.31954">
        <ele>287.915527</ele>
        <time>2010-08-10T16:46:33Z</time>
      </trkpt>
      <trkpt lat="48.75093" lon="7.31946">
        <ele>292.470215</ele>
        <time>2010-08-10T16:46:51Z</time>
      </trkpt>
      <trkpt lat="48.75107" lon="7.3194">
        <ele>292.743652</ele>
        <time>2010-08-10T16:47:06Z</time>
      </trkpt>
      <trkpt lat="48.75121" lon="7.31935">
        <ele>295.431152</ele>
        <time>2010-08-10T16:47:16Z</time>
      </trkpt>
      <trkpt lat="48.75134" lon="7.31929">
        <ele>298.103027</ele>
        <time>2010-08-10T16:47:26Z</time>
      </trkpt>
      <trkpt lat="48.75148" lon="7.3193">
        <ele>301.524902</ele>
        <time>2010-08-10T16:47:34Z</time>
      </trkpt>
      <trkpt lat="48.75161" lon="7.31937">
        <ele>306.57959</ele>
        <time>2010-08-10T16:47:44Z</time>
      </trkpt>
      <trkpt lat="48.75176" lon="7.31941">
        <ele>309.181152</ele>
        <time>2010-08-10T16:47:56Z</time>
      </trkpt>
      <trkpt lat="48.7519" lon="7.31947">
        <ele>310.86084</ele>
        <time>2010-08-10T16:48:04Z</time>
      </trkpt>
      <trkpt lat="48.75205" lon="7.31955">
        <ele>312.95459</ele>
        <time>2010-08-10T16:48:10Z</time>
      </trkpt>
      <trkpt lat="48.75217" lon="7.31964">
        <ele>314.118652</ele>
        <time>2010-08-10T16:48:19Z</time>
      </trkpt>
      <trkpt lat="48.7523" lon="7.31971">
        <ele>314.04834</ele>
        <time>2010-08-10T16:48:29Z</time>
      </trkpt>
      <trkpt lat="48.75245" lon="7.31978">
        <ele>315.103027</ele>
        <time>2010-08-10T16:48:37Z</time>
      </trkpt>
      <trkpt lat="48.75258" lon="7.31987">
        <ele>316.407715</ele>
        <time>2010-08-10T16:48:45Z</time>
      </trkpt>
      <trkpt lat="48.75271" lon="7.3199">
        <ele>318.118652</ele>
        <time>2010-08-10T16:48:53Z</time>
      </trkpt>
      <trkpt lat="48.75284" lon="7.31996">
        <ele>318.946777</ele>
        <time>2010-08-10T16:49:02Z</time>
      </trkpt>
      <trkpt lat="48.75299" lon="7.31994">
        <ele>319.681152</ele>
        <time>2010-08-10T16:49:09Z</time>
      </trkpt>
      <trkpt lat="48.75313" lon="7.31991">
        <ele>319.970215</ele>
        <time>2010-08-10T16:49:15Z</time>
      </trkpt>
      <trkpt lat="48.7533" lon="7.31989">
        <ele>319.157715</ele>
        <time>2010-08-10T16:49:21Z</time>
      </trkpt>
      <trkpt lat="48.75345" lon="7.31984">
        <ele>315.993652</ele>
        <time>2010-08-10T16:49:27Z</time>
      </trkpt>
      <trkpt lat="48.75361" lon="7.31984">
        <ele>314.86084</ele>
        <time>2010-08-10T16:49:32Z</time>
      </trkpt>
      <trkpt lat="48.75375" lon="7.31982">
        <ele>315.384277</ele>
        <time>2010-08-10T16:49:36Z</time>
      </trkpt>
      <trkpt lat="48.75389" lon="7.31983">
        <ele>315.313965</ele>
        <time>2010-08-10T16:49:40Z</time>
      </trkpt>
      <trkpt lat="48.75404" lon="7.31984">
        <ele>316.82959</ele>
        <time>2010-08-10T16:49:44Z</time>
      </trkpt>
      <trkpt lat="48.75418" lon="7.31986">
        <ele>316.228027</ele>
        <time>2010-08-10T16:49:50Z</time>
      </trkpt>
      <trkpt lat="48.75432" lon="7.31992">
        <ele>315.540527</ele>
        <time>2010-08-10T16:49:56Z</time>
      </trkpt>
      <trkpt lat="48.75445" lon="7.31995">
        <ele>316.70459</ele>
        <time>2010-08-10T16:50:03Z</time>
      </trkpt>
      <trkpt lat="48.7546" lon="7.31999">
        <ele>320.368652</ele>
        <time>2010-08-10T16:50:35Z</time>
      </trkpt>
      <trkpt lat="48.75473" lon="7.32008">
        <ele>324.14209</ele>
        <time>2010-08-10T16:50:45Z</time>
      </trkpt>
      <trkpt lat="48.75485" lon="7.32015">
        <ele>325.82959</ele>
        <time>2010-08-10T16:50:52Z</time>
      </trkpt>
      <trkpt lat="48.75496" lon="7.3203">
        <ele>324.790527</ele>
        <time>2010-08-10T16:51:03Z</time>
      </trkpt>
      <trkpt lat="48.75509" lon="7.32041">
        <ele>325.009277</ele>
        <time>2010-08-10T16:51:13Z</time>
      </trkpt>
      <trkpt lat="48.75522" lon="7.3205">
        <ele>324.751465</ele>
        <time>2010-08-10T16:51:23Z</time>
      </trkpt>
      <trkpt lat="48.75534" lon="7.32061">
        <ele>327.220215</ele>
        <time>2010-08-10T16:51:34Z</time>
      </trkpt>
      <trkpt lat="48.75545" lon="7.32071">
        <ele>331.759277</ele>
        <time>2010-08-10T16:51:49Z</time>
      </trkpt>
      <trkpt lat="48.75555" lon="7.32085">
        <ele>334.70459</ele>
        <time>2010-08-10T16:52:05Z</time>
      </trkpt>
      <trkpt lat="48.75567" lon="7.32097">
        <ele>336.95459</ele>
        <time>2010-08-10T16:52:19Z</time>
      </trkpt>
      <trkpt lat="48.7558" lon="7.32104">
        <ele>339.899902</ele>
        <time>2010-08-10T16:52:34Z</time>
      </trkpt>
      <trkpt lat="48.75591" lon="7.32115">
        <ele>342.806152</ele>
        <time>2010-08-10T16:52:49Z</time>
      </trkpt>
      <trkpt lat="48.75604" lon="7.32124">
        <ele>344.978027</ele>
        <time>2010-08-10T16:53:02Z</time>
      </trkpt>
      <trkpt lat="48.75618" lon="7.32128">
        <ele>345.540527</ele>
        <time>2010-08-10T16:53:15Z</time>
      </trkpt>
      <trkpt lat="48.75632" lon="7.32131">
        <ele>345.04834</ele>
        <time>2010-08-10T16:53:27Z</time>
      </trkpt>
      <trkpt lat="48.75646" lon="7.32132">
        <ele>344.157715</ele>
        <time>2010-08-10T16:53:40Z</time>
      </trkpt>
      <trkpt lat="48.75659" lon="7.32134">
        <ele>343.493652</ele>
        <time>2010-08-10T16:53:53Z</time>
      </trkpt>
      <trkpt lat="48.75674" lon="7.32132">
        <ele>342.962402</ele>
        <time>2010-08-10T16:54:06Z</time>
      </trkpt>
      <trkpt lat="48.75687" lon="7.32128">
        <ele>341.595215</ele>
        <time>2010-08-10T16:54:18Z</time>
      </trkpt>
      <trkpt lat="48.75703" lon="7.32127">
        <ele>344.962402</ele>
        <time>2010-08-10T16:54:32Z</time>
      </trkpt>
      <trkpt lat="48.75712" lon="7.32118">
        <ele>355.196777</ele>
        <time>2010-08-10T16:54:46Z</time>
      </trkpt>
      <trkpt lat="48.75722" lon="7.32111">
        <ele>364.540527</ele>
        <time>2010-08-10T16:55:51Z</time>
      </trkpt>
      <trkpt lat="48.75736" lon="7.32111">
        <ele>368.376465</ele>
        <time>2010-08-10T16:56:04Z</time>
      </trkpt>
      <trkpt lat="48.7575" lon="7.3211">
        <ele>370.493652</ele>
        <time>2010-08-10T16:56:13Z</time>
      </trkpt>
      <trkpt lat="48.75766" lon="7.32115">
        <ele>371.134277</ele>
        <time>2010-08-10T16:56:25Z</time>
      </trkpt>
      <trkpt lat="48.75779" lon="7.32123">
        <ele>371.728027</ele>
        <time>2010-08-10T16:56:37Z</time>
      </trkpt>
      <trkpt lat="48.75792" lon="7.32131">
        <ele>372.51709</ele>
        <time>2010-08-10T16:56:49Z</time>
      </trkpt>
      <trkpt lat="48.75789" lon="7.32152">
        <ele>370.95459</ele>
        <time>2010-08-10T16:57:00Z</time>
      </trkpt>
      <trkpt lat="48.75778" lon="7.32165">
        <ele>373.532715</ele>
        <time>2010-08-10T16:57:10Z</time>
      </trkpt>
      <trkpt lat="48.75765" lon="7.32174">
        <ele>374.103027</ele>
        <time>2010-08-10T16:57:18Z</time>
      </trkpt>
      <trkpt lat="48.75757" lon="7.32191">
        <ele>376.509277</ele>
        <time>2010-08-10T16:57:28Z</time>
      </trkpt>
      <trkpt lat="48.75747" lon="7.32208">
        <ele>377.884277</ele>
        <time>2010-08-10T16:57:38Z</time>
      </trkpt>
      <trkpt lat="48.75737" lon="7.32224">
        <ele>378.009277</ele>
        <time>2010-08-10T16:57:48Z</time>
      </trkpt>
      <trkpt lat="48.75727" lon="7.32238">
        <ele>381.165527</ele>
        <time>2010-08-10T16:57:56Z</time>
      </trkpt>
      <trkpt lat="48.75714" lon="7.32247">
        <ele>383.399902</ele>
        <time>2010-08-10T16:58:04Z</time>
      </trkpt>
      <trkpt lat="48.75706" lon="7.32262">
        <ele>388.806152</ele>
        <time>2010-08-10T16:58:13Z</time>
      </trkpt>
      <trkpt lat="48.75697" lon="7.32279">
        <ele>389.571777</ele>
        <time>2010-08-10T16:58:29Z</time>
      </trkpt>
      <trkpt lat="48.75682" lon="7.32289">
        <ele>390.17334</ele>
        <time>2010-08-10T16:58:36Z</time>
      </trkpt>
      <trkpt lat="48.75668" lon="7.32296">
        <ele>390.290527</ele>
        <time>2010-08-10T16:58:41Z</time>
      </trkpt>
      <trkpt lat="48.75654" lon="7.32304">
        <ele>388.228027</ele>
        <time>2010-08-10T16:58:45Z</time>
      </trkpt>
      <trkpt lat="48.7564" lon="7.32308">
        <ele>387.884277</ele>
        <time>2010-08-10T16:58:49Z</time>
      </trkpt>
      <trkpt lat="48.75625" lon="7.32311">
        <ele>387.532715</ele>
        <time>2010-08-10T16:58:53Z</time>
      </trkpt>
      <trkpt lat="48.75611" lon="7.32315">
        <ele>388.368652</ele>
        <time>2010-08-10T16:58:57Z</time>
      </trkpt>
      <trkpt lat="48.75596" lon="7.32317">
        <ele>388.39209</ele>
        <time>2010-08-10T16:59:01Z</time>
      </trkpt>
      <trkpt lat="48.7558" lon="7.32317">
        <ele>389.728027</ele>
        <time>2010-08-10T16:59:05Z</time>
      </trkpt>
      <trkpt lat="48.75562" lon="7.32315">
        <ele>388.743652</ele>
        <time>2010-08-10T16:59:09Z</time>
      </trkpt>
      <trkpt lat="48.75548" lon="7.32311">
        <ele>388.407715</ele>
        <time>2010-08-10T16:59:13Z</time>
      </trkpt>
      <trkpt lat="48.75533" lon="7.32305">
        <ele>390.73584</ele>
        <time>2010-08-10T16:59:17Z</time>
      </trkpt>
      <trkpt lat="48.75518" lon="7.32301">
        <ele>390.696777</ele>
        <time>2010-08-10T16:59:22Z</time>
      </trkpt>
      <trkpt lat="48.75502" lon="7.32297">
        <ele>391.681152</ele>
        <time>2010-08-10T16:59:26Z</time>
      </trkpt>
      <trkpt lat="48.75485" lon="7.32298">
        <ele>393.063965</ele>
        <time>2010-08-10T16:59:30Z</time>
      </trkpt>
      <trkpt lat="48.7547" lon="7.32297">
        <ele>395.907715</ele>
        <time>2010-08-10T16:59:34Z</time>
      </trkpt>
      <trkpt lat="48.75457" lon="7.32295">
        <ele>401.149902</ele>
        <time>2010-08-10T16:59:39Z</time>
      </trkpt>
      <trkpt lat="48.75443" lon="7.32292">
        <ele>404.806152</ele>
        <time>2010-08-10T16:59:44Z</time>
      </trkpt>
      <trkpt lat="48.7543" lon="7.32288">
        <ele>405.243652</ele>
        <time>2010-08-10T16:59:49Z</time>
      </trkpt>
      <trkpt lat="48.75415" lon="7.32285">
        <ele>408.751465</ele>
        <time>2010-08-10T16:59:54Z</time>
      </trkpt>
      <trkpt lat="48.75401" lon="7.3228">
        <ele>410.17334</ele>
        <time>2010-08-10T16:59:59Z</time>
      </trkpt>
      <trkpt lat="48.75385" lon="7.32273">
        <ele>406.20459</ele>
        <time>2010-08-10T17:00:04Z</time>
      </trkpt>
      <trkpt lat="48.75372" lon="7.32271">
        <ele>407.86084</ele>
        <time>2010-08-10T17:00:10Z</time>
      </trkpt>
      <trkpt lat="48.75358" lon="7.32269">
        <ele>410.524902</ele>
        <time>2010-08-10T17:00:16Z</time>
      </trkpt>
      <trkpt lat="48.75342" lon="7.32264">
        <ele>410.82959</ele>
        <time>2010-08-10T17:00:21Z</time>
      </trkpt>
      <trkpt lat="48.75327" lon="7.3226">
        <ele>411.274902</ele>
        <time>2010-08-10T17:00:26Z</time>
      </trkpt>
      <trkpt lat="48.75312" lon="7.32256">
        <ele>410.774902</ele>
        <time>2010-08-10T17:00:31Z</time>
      </trkpt>
      <trkpt lat="48.75298" lon="7.32252">
        <ele>411.243652</ele>
        <time>2010-08-10T17:00:35Z</time>
      </trkpt>
      <trkpt lat="48.75282" lon="7.32246">
        <ele>411.42334</ele>
        <time>2010-08-10T17:00:39Z</time>
      </trkpt>
      <trkpt lat="48.75267" lon="7.32242">
        <ele>412.907715</ele>
        <time>2010-08-10T17:00:43Z</time>
      </trkpt>
      <trkpt lat="48.7525" lon="7.32238">
        <ele>413.61084</ele>
        <time>2010-08-10T17:00:47Z</time>
      </trkpt>
      <trkpt lat="48.75236" lon="7.32235">
        <ele>413.813965</ele>
        <time>2010-08-10T17:00:50Z</time>
      </trkpt>
      <trkpt lat="48.7522" lon="7.32231">
        <ele>413.438965</ele>
        <time>2010-08-10T17:00:54Z</time>
      </trkpt>
      <trkpt lat="48.75206" lon="7.32228">
        <ele>411.759277</ele>
        <time>2010-08-10T17:00:58Z</time>
      </trkpt>
      <trkpt lat="48.7519" lon="7.32226">
        <ele>409.39209</ele>
        <time>2010-08-10T17:01:02Z</time>
      </trkpt>
      <trkpt lat="48.75176" lon="7.32225">
        <ele>410.634277</ele>
        <time>2010-08-10T17:01:07Z</time>
      </trkpt>
      <trkpt lat="48.7516" lon="7.32228">
        <ele>410.524902</ele>
        <time>2010-08-10T17:01:14Z</time>
      </trkpt>
      <trkpt lat="48.75145" lon="7.32233">
        <ele>410.774902</ele>
        <time>2010-08-10T17:01:19Z</time>
      </trkpt>
      <trkpt lat="48.75132" lon="7.32241">
        <ele>408.587402</ele>
        <time>2010-08-10T17:01:23Z</time>
      </trkpt>
      <trkpt lat="48.75118" lon="7.32251">
        <ele>407.23584</ele>
        <time>2010-08-10T17:01:27Z</time>
      </trkpt>
      <trkpt lat="48.75103" lon="7.32261">
        <ele>406.446777</ele>
        <time>2010-08-10T17:01:31Z</time>
      </trkpt>
      <trkpt lat="48.75087" lon="7.32274">
        <ele>406.73584</ele>
        <time>2010-08-10T17:01:35Z</time>
      </trkpt>
      <trkpt lat="48.75066" lon="7.32284">
        <ele>405.89209</ele>
        <time>2010-08-10T17:01:39Z</time>
      </trkpt>
      <trkpt lat="48.75051" lon="7.32292">
        <ele>405.493652</ele>
        <time>2010-08-10T17:01:42Z</time>
      </trkpt>
      <trkpt lat="48.75037" lon="7.323">
        <ele>406.649902</ele>
        <time>2010-08-10T17:01:45Z</time>
      </trkpt>
      <trkpt lat="48.75021" lon="7.32309">
        <ele>406.431152</ele>
        <time>2010-08-10T17:01:48Z</time>
      </trkpt>
      <trkpt lat="48.75005" lon="7.32316">
        <ele>406.73584</ele>
        <time>2010-08-10T17:01:51Z</time>
      </trkpt>
      <trkpt lat="48.7499" lon="7.32326">
        <ele>403.29834</ele>
        <time>2010-08-10T17:01:54Z</time>
      </trkpt>
      <trkpt lat="48.74977" lon="7.32339">
        <ele>400.384277</ele>
        <time>2010-08-10T17:01:57Z</time>
      </trkpt>
      <trkpt lat="48.74963" lon="7.32349">
        <ele>399.306152</ele>
        <time>2010-08-10T17:02:00Z</time>
      </trkpt>
      <trkpt lat="48.74949" lon="7.32359">
        <ele>399.11084</ele>
        <time>2010-08-10T17:02:03Z</time>
      </trkpt>
      <trkpt lat="48.74936" lon="7.32372">
        <ele>396.54834</ele>
        <time>2010-08-10T17:02:06Z</time>
      </trkpt>
      <trkpt lat="48.74923" lon="7.32382">
        <ele>396.407715</ele>
        <time>2010-08-10T17:02:09Z</time>
      </trkpt>
      <trkpt lat="48.7491" lon="7.32391">
        <ele>396.118652</ele>
        <time>2010-08-10T17:02:12Z</time>
      </trkpt>
      <trkpt lat="48.74898" lon="7.32399">
        <ele>397.04834</ele>
        <time>2010-08-10T17:02:15Z</time>
      </trkpt>
      <trkpt lat="48.74884" lon="7.32407">
        <ele>396.86084</ele>
        <time>2010-08-10T17:02:18Z</time>
      </trkpt>
      <trkpt lat="48.74871" lon="7.32418">
        <ele>396.51709</ele>
        <time>2010-08-10T17:02:21Z</time>
      </trkpt>
      <trkpt lat="48.74857" lon="7.32429">
        <ele>395.759277</ele>
        <time>2010-08-10T17:02:24Z</time>
      </trkpt>
      <trkpt lat="48.74844" lon="7.32442">
        <ele>396.149902</ele>
        <time>2010-08-10T17:02:27Z</time>
      </trkpt>
      <trkpt lat="48.74834" lon="7.32456">
        <ele>395.813965</ele>
        <time>2010-08-10T17:02:30Z</time>
      </trkpt>
      <trkpt lat="48.74822" lon="7.32469">
        <ele>395.806152</ele>
        <time>2010-08-10T17:02:34Z</time>
      </trkpt>
      <trkpt lat="48.74812" lon="7.32483">
        <ele>398.384277</ele>
        <time>2010-08-10T17:02:38Z</time>
      </trkpt>
      <trkpt lat="48.748" lon="7.32499">
        <ele>399.399902</ele>
        <time>2010-08-10T17:02:43Z</time>
      </trkpt>
      <trkpt lat="48.74786" lon="7.32504">
        <ele>402.938965</ele>
        <time>2010-08-10T17:02:50Z</time>
      </trkpt>
      <trkpt lat="48.74772" lon="7.32504">
        <ele>406.134277</ele>
        <time>2010-08-10T17:02:55Z</time>
      </trkpt>
      <trkpt lat="48.74756" lon="7.325">
        <ele>407.462402</ele>
        <time>2010-08-10T17:03:00Z</time>
      </trkpt>
      <trkpt lat="48.74738" lon="7.32497">
        <ele>409.274902</ele>
        <time>2010-08-10T17:03:04Z</time>
      </trkpt>
      <trkpt lat="48.7472" lon="7.32492">
        <ele>410.587402</ele>
        <time>2010-08-10T17:03:08Z</time>
      </trkpt>
      <trkpt lat="48.74706" lon="7.32495">
        <ele>410.79834</ele>
        <time>2010-08-10T17:03:13Z</time>
      </trkpt>
      <trkpt lat="48.74692" lon="7.32503">
        <ele>412.806152</ele>
        <time>2010-08-10T17:03:17Z</time>
      </trkpt>
      <trkpt lat="48.74677" lon="7.32511">
        <ele>412.54834</ele>
        <time>2010-08-10T17:03:21Z</time>
      </trkpt>
      <trkpt lat="48.74665" lon="7.32523">
        <ele>413.220215</ele>
        <time>2010-08-10T17:03:25Z</time>
      </trkpt>
      <trkpt lat="48.74652" lon="7.32539">
        <ele>414.759277</ele>
        <time>2010-08-10T17:03:30Z</time>
      </trkpt>
      <trkpt lat="48.74638" lon="7.32549">
        <ele>413.681152</ele>
        <time>2010-08-10T17:03:34Z</time>
      </trkpt>
      <trkpt lat="48.74625" lon="7.32559">
        <ele>413.82959</ele>
        <time>2010-08-10T17:03:38Z</time>
      </trkpt>
      <trkpt lat="48.74612" lon="7.32572">
        <ele>416.134277</ele>
        <time>2010-08-10T17:03:43Z</time>
      </trkpt>
      <trkpt lat="48.74599" lon="7.32582">
        <ele>417.751465</ele>
        <time>2010-08-10T17:03:47Z</time>
      </trkpt>
      <trkpt lat="48.74585" lon="7.32594">
        <ele>420.915527</ele>
        <time>2010-08-10T17:03:52Z</time>
      </trkpt>
      <trkpt lat="48.74572" lon="7.32607">
        <ele>422.509277</ele>
        <time>2010-08-10T17:03:55Z</time>
      </trkpt>
      <trkpt lat="48.74555" lon="7.32619">
        <ele>424.157715</ele>
        <time>2010-08-10T17:04:00Z</time>
      </trkpt>
      <trkpt lat="48.74539" lon="7.32628">
        <ele>425.251465</ele>
        <time>2010-08-10T17:04:04Z</time>
      </trkpt>
      <trkpt lat="48.74527" lon="7.32638">
        <ele>425.282715</ele>
        <time>2010-08-10T17:04:07Z</time>
      </trkpt>
      <trkpt lat="48.74512" lon="7.32647">
        <ele>425.001465</ele>
        <time>2010-08-10T17:04:10Z</time>
      </trkpt>
      <trkpt lat="48.74499" lon="7.32664">
        <ele>422.446777</ele>
        <time>2010-08-10T17:04:14Z</time>
      </trkpt>
      <trkpt lat="48.74485" lon="7.32677">
        <ele>422.032715</ele>
        <time>2010-08-10T17:04:18Z</time>
      </trkpt>
      <trkpt lat="48.74473" lon="7.32696">
        <ele>420.07959</ele>
        <time>2010-08-10T17:04:22Z</time>
      </trkpt>
      <trkpt lat="48.7446" lon="7.32711">
        <ele>418.970215</ele>
        <time>2010-08-10T17:04:26Z</time>
      </trkpt>
      <trkpt lat="48.7445" lon="7.3273">
        <ele>419.056152</ele>
        <time>2010-08-10T17:04:31Z</time>
      </trkpt>
      <trkpt lat="48.74443" lon="7.32751">
        <ele>421.157715</ele>
        <time>2010-08-10T17:04:37Z</time>
      </trkpt>
      <trkpt lat="48.74439" lon="7.32771">
        <ele>422.774902</ele>
        <time>2010-08-10T17:04:43Z</time>
      </trkpt>
      <trkpt lat="48.74431" lon="7.32789">
        <ele>425.024902</ele>
        <time>2010-08-10T17:04:49Z</time>
      </trkpt>
      <trkpt lat="48.74424" lon="7.3281">
        <ele>421.853027</ele>
        <time>2010-08-10T17:04:54Z</time>
      </trkpt>
      <trkpt lat="48.74418" lon="7.32832">
        <ele>424.243652</ele>
        <time>2010-08-10T17:04:59Z</time>
      </trkpt>
      <trkpt lat="48.74411" lon="7.32853">
        <ele>423.978027</ele>
        <time>2010-08-10T17:05:04Z</time>
      </trkpt>
      <trkpt lat="48.74408" lon="7.32874">
        <ele>427.368652</ele>
        <time>2010-08-10T17:05:08Z</time>
      </trkpt>
      <trkpt lat="48.74408" lon="7.32895">
        <ele>427.438965</ele>
        <time>2010-08-10T17:05:11Z</time>
      </trkpt>
      <trkpt lat="48.74404" lon="7.32919">
        <ele>430.884277</ele>
        <time>2010-08-10T17:05:16Z</time>
      </trkpt>
      <trkpt lat="48.74402" lon="7.32939">
        <ele>433.907715</ele>
        <time>2010-08-10T17:05:20Z</time>
      </trkpt>
      <trkpt lat="48.74398" lon="7.32962">
        <ele>433.681152</ele>
        <time>2010-08-10T17:05:24Z</time>
      </trkpt>
      <trkpt lat="48.74398" lon="7.32982">
        <ele>432.353027</ele>
        <time>2010-08-10T17:05:27Z</time>
      </trkpt>
      <trkpt lat="48.744" lon="7.33003">
        <ele>432.220215</ele>
        <time>2010-08-10T17:05:29Z</time>
      </trkpt>
      <trkpt lat="48.744" lon="7.33025">
        <ele>430.095215</ele>
        <time>2010-08-10T17:05:32Z</time>
      </trkpt>
      <trkpt lat="48.74397" lon="7.33046">
        <ele>431.290527</ele>
        <time>2010-08-10T17:05:35Z</time>
      </trkpt>
      <trkpt lat="48.74396" lon="7.33071">
        <ele>430.806152</ele>
        <time>2010-08-10T17:05:39Z</time>
      </trkpt>
      <trkpt lat="48.74395" lon="7.33095">
        <ele>429.399902</ele>
        <time>2010-08-10T17:05:43Z</time>
      </trkpt>
      <trkpt lat="48.74393" lon="7.33116">
        <ele>429.853027</ele>
        <time>2010-08-10T17:05:47Z</time>
      </trkpt>
      <trkpt lat="48.74393" lon="7.33139">
        <ele>431.063965</ele>
        <time>2010-08-10T17:05:51Z</time>
      </trkpt>
      <trkpt lat="48.74393" lon="7.33163">
        <ele>430.274902</ele>
        <time>2010-08-10T17:05:54Z</time>
      </trkpt>
      <trkpt lat="48.74397" lon="7.33183">
        <ele>431.563965</ele>
        <time>2010-08-10T17:05:58Z</time>
      </trkpt>
      <trkpt lat="48.74393" lon="7.33204">
        <ele>428.76709</ele>
        <time>2010-08-10T17:06:02Z</time>
      </trkpt>
      <trkpt lat="48.74389" lon="7.33229">
        <ele>426.70459</ele>
        <time>2010-08-10T17:06:06Z</time>
      </trkpt>
      <trkpt lat="48.74395" lon="7.33252">
        <ele>422.688965</ele>
        <time>2010-08-10T17:06:09Z</time>
      </trkpt>
      <trkpt lat="48.74403" lon="7.33281">
        <ele>426.001465</ele>
        <time>2010-08-10T17:06:12Z</time>
      </trkpt>
      <trkpt lat="48.74408" lon="7.33312">
        <ele>417.688965</ele>
        <time>2010-08-10T17:06:14Z</time>
      </trkpt>
      <trkpt lat="48.74412" lon="7.33335">
        <ele>417.681152</ele>
        <time>2010-08-10T17:06:16Z</time>
      </trkpt>
      <trkpt lat="48.74421" lon="7.33358">
        <ele>414.095215</ele>
        <time>2010-08-10T17:06:18Z</time>
      </trkpt>
      <trkpt lat="48.74431" lon="7.33373">
        <ele>411.626465</ele>
        <time>2010-08-10T17:06:20Z</time>
      </trkpt>
      <trkpt lat="48.74445" lon="7.33389">
        <ele>408.032715</ele>
        <time>2010-08-10T17:06:23Z</time>
      </trkpt>
      <trkpt lat="48.74458" lon="7.334">
        <ele>411.712402</ele>
        <time>2010-08-10T17:06:27Z</time>
      </trkpt>
      <trkpt lat="48.74471" lon="7.33404">
        <ele>412.345215</ele>
        <time>2010-08-10T17:06:36Z</time>
      </trkpt>
      <trkpt lat="48.74484" lon="7.33397">
        <ele>407.73584</ele>
        <time>2010-08-10T17:06:46Z</time>
      </trkpt>
      <trkpt lat="48.74498" lon="7.3339">
        <ele>407.938965</ele>
        <time>2010-08-10T17:06:50Z</time>
      </trkpt>
      <trkpt lat="48.74512" lon="7.33384">
        <ele>407.407715</ele>
        <time>2010-08-10T17:06:55Z</time>
      </trkpt>
      <trkpt lat="48.74527" lon="7.33378">
        <ele>405.806152</ele>
        <time>2010-08-10T17:07:00Z</time>
      </trkpt>
      <trkpt lat="48.74544" lon="7.3337">
        <ele>403.89209</ele>
        <time>2010-08-10T17:07:05Z</time>
      </trkpt>
      <trkpt lat="48.74559" lon="7.33359">
        <ele>401.962402</ele>
        <time>2010-08-10T17:07:08Z</time>
      </trkpt>
      <trkpt lat="48.74575" lon="7.33355">
        <ele>400.493652</ele>
        <time>2010-08-10T17:07:11Z</time>
      </trkpt>
      <trkpt lat="48.74591" lon="7.33343">
        <ele>399.11084</ele>
        <time>2010-08-10T17:07:14Z</time>
      </trkpt>
      <trkpt lat="48.74608" lon="7.3334">
        <ele>397.61084</ele>
        <time>2010-08-10T17:07:17Z</time>
      </trkpt>
      <trkpt lat="48.74622" lon="7.33336">
        <ele>397.009277</ele>
        <time>2010-08-10T17:07:19Z</time>
      </trkpt>
      <trkpt lat="48.7464" lon="7.33324">
        <ele>395.993652</ele>
        <time>2010-08-10T17:07:22Z</time>
      </trkpt>
      <trkpt lat="48.74654" lon="7.33318">
        <ele>395.54834</ele>
        <time>2010-08-10T17:07:24Z</time>
      </trkpt>
      <trkpt lat="48.74673" lon="7.33309">
        <ele>395.399902</ele>
        <time>2010-08-10T17:07:27Z</time>
      </trkpt>
      <trkpt lat="48.74686" lon="7.33302">
        <ele>393.876465</ele>
        <time>2010-08-10T17:07:29Z</time>
      </trkpt>
      <trkpt lat="48.74705" lon="7.33296">
        <ele>393.509277</ele>
        <time>2010-08-10T17:07:32Z</time>
      </trkpt>
      <trkpt lat="48.74721" lon="7.3329">
        <ele>392.73584</ele>
        <time>2010-08-10T17:07:35Z</time>
      </trkpt>
      <trkpt lat="48.7474" lon="7.33278">
        <ele>394.76709</ele>
        <time>2010-08-10T17:07:39Z</time>
      </trkpt>
      <trkpt lat="48.74754" lon="7.33272">
        <ele>394.493652</ele>
        <time>2010-08-10T17:07:41Z</time>
      </trkpt>
      <trkpt lat="48.7477" lon="7.33261">
        <ele>393.782715</ele>
        <time>2010-08-10T17:07:44Z</time>
      </trkpt>
      <trkpt lat="48.74787" lon="7.3325">
        <ele>393.321777</ele>
        <time>2010-08-10T17:07:47Z</time>
      </trkpt>
      <trkpt lat="48.74801" lon="7.33236">
        <ele>392.26709</ele>
        <time>2010-08-10T17:07:50Z</time>
      </trkpt>
      <trkpt lat="48.74814" lon="7.33229">
        <ele>390.48584</ele>
        <time>2010-08-10T17:07:52Z</time>
      </trkpt>
      <trkpt lat="48.74831" lon="7.33219">
        <ele>389.087402</ele>
        <time>2010-08-10T17:07:55Z</time>
      </trkpt>
      <trkpt lat="48.74843" lon="7.33203">
        <ele>388.20459</ele>
        <time>2010-08-10T17:07:57Z</time>
      </trkpt>
      <trkpt lat="48.74854" lon="7.33187">
        <ele>387.345215</ele>
        <time>2010-08-10T17:07:59Z</time>
      </trkpt>
      <trkpt lat="48.74871" lon="7.33178">
        <ele>385.845215</ele>
        <time>2010-08-10T17:08:02Z</time>
      </trkpt>
      <trkpt lat="48.74886" lon="7.33166">
        <ele>384.001465</ele>
        <time>2010-08-10T17:08:05Z</time>
      </trkpt>
      <trkpt lat="48.74905" lon="7.33151">
        <ele>382.478027</ele>
        <time>2010-08-10T17:08:07Z</time>
      </trkpt>
      <trkpt lat="48.74919" lon="7.33137">
        <ele>381.446777</ele>
        <time>2010-08-10T17:08:09Z</time>
      </trkpt>
      <trkpt lat="48.74934" lon="7.3312">
        <ele>380.407715</ele>
        <time>2010-08-10T17:08:11Z</time>
      </trkpt>
      <trkpt lat="48.7495" lon="7.33106">
        <ele>379.978027</ele>
        <time>2010-08-10T17:08:13Z</time>
      </trkpt>
      <trkpt lat="48.74965" lon="7.33092">
        <ele>379.313965</ele>
        <time>2010-08-10T17:08:15Z</time>
      </trkpt>
      <trkpt lat="48.74976" lon="7.33078">
        <ele>379.853027</ele>
        <time>2010-08-10T17:08:16Z</time>
      </trkpt>
      <trkpt lat="48.74991" lon="7.33063">
        <ele>379.259277</ele>
        <time>2010-08-10T17:08:19Z</time>
      </trkpt>
      <trkpt lat="48.75011" lon="7.33066">
        <ele>379.813965</ele>
        <time>2010-08-10T17:08:22Z</time>
      </trkpt>
      <trkpt lat="48.75028" lon="7.33076">
        <ele>380.76709</ele>
        <time>2010-08-10T17:08:25Z</time>
      </trkpt>
      <trkpt lat="48.75038" lon="7.33089">
        <ele>381.438965</ele>
        <time>2010-08-10T17:08:27Z</time>
      </trkpt>
      <trkpt lat="48.7505" lon="7.33102">
        <ele>381.45459</ele>
        <time>2010-08-10T17:08:29Z</time>
      </trkpt>
      <trkpt lat="48.75063" lon="7.33114">
        <ele>382.415527</ele>
        <time>2010-08-10T17:08:31Z</time>
      </trkpt>
      <trkpt lat="48.75079" lon="7.33135">
        <ele>382.73584</ele>
        <time>2010-08-10T17:08:34Z</time>
      </trkpt>
      <trkpt lat="48.75099" lon="7.33164">
        <ele>382.17334</ele>
        <time>2010-08-10T17:08:36Z</time>
      </trkpt>
      <trkpt lat="48.75114" lon="7.33189">
        <ele>383.353027</ele>
        <time>2010-08-10T17:08:39Z</time>
      </trkpt>
      <trkpt lat="48.75129" lon="7.33211">
        <ele>383.36084</ele>
        <time>2010-08-10T17:08:41Z</time>
      </trkpt>
      <trkpt lat="48.75141" lon="7.33229">
        <ele>382.54834</ele>
        <time>2010-08-10T17:08:43Z</time>
      </trkpt>
      <trkpt lat="48.75153" lon="7.3325">
        <ele>382.86084</ele>
        <time>2010-08-10T17:08:46Z</time>
      </trkpt>
      <trkpt lat="48.7516" lon="7.33273">
        <ele>383.696777</ele>
        <time>2010-08-10T17:08:49Z</time>
      </trkpt>
      <trkpt lat="48.75167" lon="7.33298">
        <ele>384.92334</ele>
        <time>2010-08-10T17:08:52Z</time>
      </trkpt>
      <trkpt lat="48.75177" lon="7.33318">
        <ele>385.056152</ele>
        <time>2010-08-10T17:08:55Z</time>
      </trkpt>
      <trkpt lat="48.7519" lon="7.33338">
        <ele>385.376465</ele>
        <time>2010-08-10T17:08:58Z</time>
      </trkpt>
      <trkpt lat="48.75205" lon="7.33361">
        <ele>386.915527</ele>
        <time>2010-08-10T17:09:01Z</time>
      </trkpt>
      <trkpt lat="48.75217" lon="7.33381">
        <ele>388.36084</ele>
        <time>2010-08-10T17:09:04Z</time>
      </trkpt>
      <trkpt lat="48.75228" lon="7.334">
        <ele>390.095215</ele>
        <time>2010-08-10T17:09:07Z</time>
      </trkpt>
      <trkpt lat="48.75238" lon="7.33419">
        <ele>390.884277</ele>
        <time>2010-08-10T17:09:10Z</time>
      </trkpt>
      <trkpt lat="48.75249" lon="7.33438">
        <ele>392.556152</ele>
        <time>2010-08-10T17:09:14Z</time>
      </trkpt>
      <trkpt lat="48.75262" lon="7.33453">
        <ele>395.321777</ele>
        <time>2010-08-10T17:09:18Z</time>
      </trkpt>
      <trkpt lat="48.7528" lon="7.33464">
        <ele>398.845215</ele>
        <time>2010-08-10T17:09:23Z</time>
      </trkpt>
      <trkpt lat="48.75293" lon="7.33468">
        <ele>400.603027</ele>
        <time>2010-08-10T17:09:27Z</time>
      </trkpt>
      <trkpt lat="48.75309" lon="7.33473">
        <ele>401.712402</ele>
        <time>2010-08-10T17:09:32Z</time>
      </trkpt>
      <trkpt lat="48.75325" lon="7.33477">
        <ele>399.73584</ele>
        <time>2010-08-10T17:09:35Z</time>
      </trkpt>
      <trkpt lat="48.75338" lon="7.3348">
        <ele>396.45459</ele>
        <time>2010-08-10T17:09:38Z</time>
      </trkpt>
      <trkpt lat="48.75354" lon="7.33481">
        <ele>393.86084</ele>
        <time>2010-08-10T17:09:43Z</time>
      </trkpt>
      <trkpt lat="48.75367" lon="7.33497">
        <ele>395.774902</ele>
        <time>2010-08-10T17:09:48Z</time>
      </trkpt>
      <trkpt lat="48.75381" lon="7.33507">
        <ele>390.899902</ele>
        <time>2010-08-10T17:09:52Z</time>
      </trkpt>
      <trkpt lat="48.75395" lon="7.33504">
        <ele>390.821777</ele>
        <time>2010-08-10T17:10:00Z</time>
      </trkpt>
      <trkpt lat="48.75404" lon="7.33486">
        <ele>394.649902</ele>
        <time>2010-08-10T17:10:08Z</time>
      </trkpt>
      <trkpt lat="48.75407" lon="7.33466">
        <ele>397.540527</ele>
        <time>2010-08-10T17:10:37Z</time>
      </trkpt>
      <trkpt lat="48.75422" lon="7.33461">
        <ele>398.462402</ele>
        <time>2010-08-10T17:10:47Z</time>
      </trkpt>
      <trkpt lat="48.75432" lon="7.33476">
        <ele>402.993652</ele>
        <time>2010-08-10T17:10:57Z</time>
      </trkpt>
      <trkpt lat="48.75438" lon="7.33493">
        <ele>406.813965</ele>
        <time>2010-08-10T17:11:06Z</time>
      </trkpt>
      <trkpt lat="48.75442" lon="7.33514">
        <ele>408.024902</ele>
        <time>2010-08-10T17:11:11Z</time>
      </trkpt>
      <trkpt lat="48.75438" lon="7.33535">
        <ele>410.54834</ele>
        <time>2010-08-10T17:11:16Z</time>
      </trkpt>
      <trkpt lat="48.75439" lon="7.33557">
        <ele>410.720215</ele>
        <time>2010-08-10T17:11:21Z</time>
      </trkpt>
      <trkpt lat="48.75433" lon="7.33579">
        <ele>409.26709</ele>
        <time>2010-08-10T17:11:30Z</time>
      </trkpt>
      <trkpt lat="48.75424" lon="7.33597">
        <ele>407.290527</ele>
        <time>2010-08-10T17:11:36Z</time>
      </trkpt>
      <trkpt lat="48.75415" lon="7.33613">
        <ele>408.181152</ele>
        <time>2010-08-10T17:11:41Z</time>
      </trkpt>
      <trkpt lat="48.75403" lon="7.33633">
        <ele>403.251465</ele>
        <time>2010-08-10T17:11:45Z</time>
      </trkpt>
      <trkpt lat="48.75393" lon="7.3365">
        <ele>400.321777</ele>
        <time>2010-08-10T17:11:49Z</time>
      </trkpt>
      <trkpt lat="48.75392" lon="7.33671">
        <ele>399.478027</ele>
        <time>2010-08-10T17:11:52Z</time>
      </trkpt>
      <trkpt lat="48.75389" lon="7.33694">
        <ele>395.899902</ele>
        <time>2010-08-10T17:11:56Z</time>
      </trkpt>
      <trkpt lat="48.75388" lon="7.33715">
        <ele>394.743652</ele>
        <time>2010-08-10T17:12:01Z</time>
      </trkpt>
      <trkpt lat="48.75383" lon="7.33735">
        <ele>396.23584</ele>
        <time>2010-08-10T17:12:07Z</time>
      </trkpt>
      <trkpt lat="48.7538" lon="7.33755">
        <ele>398.36084</ele>
        <time>2010-08-10T17:12:11Z</time>
      </trkpt>
      <trkpt lat="48.75383" lon="7.33778">
        <ele>392.04834</ele>
        <time>2010-08-10T17:12:15Z</time>
      </trkpt>
      <trkpt lat="48.75385" lon="7.33803">
        <ele>390.306152</ele>
        <time>2010-08-10T17:12:19Z</time>
      </trkpt>
      <trkpt lat="48.75392" lon="7.33821">
        <ele>387.290527</ele>
        <time>2010-08-10T17:12:27Z</time>
      </trkpt>
      <trkpt lat="48.75387" lon="7.3384">
        <ele>382.696777</ele>
        <time>2010-08-10T17:12:46Z</time>
      </trkpt>
      <trkpt lat="48.75393" lon="7.3386">
        <ele>384.251465</ele>
        <time>2010-08-10T17:12:51Z</time>
      </trkpt>
      <trkpt lat="48.75399" lon="7.3388">
        <ele>386.071777</ele>
        <time>2010-08-10T17:12:56Z</time>
      </trkpt>
      <trkpt lat="48.75404" lon="7.33899">
        <ele>388.290527</ele>
        <time>2010-08-10T17:13:01Z</time>
      </trkpt>
      <trkpt lat="48.75416" lon="7.3392">
        <ele>390.845215</ele>
        <time>2010-08-10T17:13:05Z</time>
      </trkpt>
      <trkpt lat="48.75425" lon="7.33938">
        <ele>393.274902</ele>
        <time>2010-08-10T17:13:10Z</time>
      </trkpt>
      <trkpt lat="48.75435" lon="7.33961">
        <ele>392.282715</ele>
        <time>2010-08-10T17:13:14Z</time>
      </trkpt>
      <trkpt lat="48.75444" lon="7.33978">
        <ele>392.806152</ele>
        <time>2010-08-10T17:13:18Z</time>
      </trkpt>
      <trkpt lat="48.75455" lon="7.33993">
        <ele>394.14209</ele>
        <time>2010-08-10T17:13:22Z</time>
      </trkpt>
      <trkpt lat="48.75469" lon="7.34012">
        <ele>395.17334</ele>
        <time>2010-08-10T17:13:27Z</time>
      </trkpt>
      <trkpt lat="48.75483" lon="7.34025">
        <ele>396.321777</ele>
        <time>2010-08-10T17:13:31Z</time>
      </trkpt>
      <trkpt lat="48.75496" lon="7.34035">
        <ele>397.149902</ele>
        <time>2010-08-10T17:13:35Z</time>
      </trkpt>
      <trkpt lat="48.75507" lon="7.34047">
        <ele>398.48584</ele>
        <time>2010-08-10T17:13:39Z</time>
      </trkpt>
      <trkpt lat="48.7552" lon="7.34055">
        <ele>398.532715</ele>
        <time>2010-08-10T17:13:43Z</time>
      </trkpt>
      <trkpt lat="48.75531" lon="7.34078">
        <ele>396.657715</ele>
        <time>2010-08-10T17:13:48Z</time>
      </trkpt>
      <trkpt lat="48.75542" lon="7.34096">
        <ele>396.071777</ele>
        <time>2010-08-10T17:13:53Z</time>
      </trkpt>
      <trkpt lat="48.75551" lon="7.34114">
        <ele>394.79834</ele>
        <time>2010-08-10T17:13:56Z</time>
      </trkpt>
      <trkpt lat="48.75562" lon="7.34139">
        <ele>390.188965</ele>
        <time>2010-08-10T17:13:59Z</time>
      </trkpt>
      <trkpt lat="48.7557" lon="7.34162">
        <ele>384.501465</ele>
        <time>2010-08-10T17:14:02Z</time>
      </trkpt>
      <trkpt lat="48.75579" lon="7.34182">
        <ele>380.92334</ele>
        <time>2010-08-10T17:14:04Z</time>
      </trkpt>
      <trkpt lat="48.75587" lon="7.34207">
        <ele>377.188965</ele>
        <time>2010-08-10T17:14:07Z</time>
      </trkpt>
      <trkpt lat="48.75594" lon="7.34233">
        <ele>373.86084</ele>
        <time>2010-08-10T17:14:11Z</time>
      </trkpt>
      <trkpt lat="48.756" lon="7.3426">
        <ele>370.782715</ele>
        <time>2010-08-10T17:14:14Z</time>
      </trkpt>
      <trkpt lat="48.75607" lon="7.3428">
        <ele>369.813965</ele>
        <time>2010-08-10T17:14:16Z</time>
      </trkpt>
      <trkpt lat="48.75612" lon="7.343">
        <ele>368.79834</ele>
        <time>2010-08-10T17:14:19Z</time>
      </trkpt>
      <trkpt lat="48.75618" lon="7.34325">
        <ele>364.64209</ele>
        <time>2010-08-10T17:14:22Z</time>
      </trkpt>
      <trkpt lat="48.75627" lon="7.34347">
        <ele>360.376465</ele>
        <time>2010-08-10T17:14:25Z</time>
      </trkpt>
      <trkpt lat="48.75638" lon="7.34374">
        <ele>357.39209</ele>
        <time>2010-08-10T17:14:28Z</time>
      </trkpt>
      <trkpt lat="48.75645" lon="7.344">
        <ele>354.149902</ele>
        <time>2010-08-10T17:14:31Z</time>
      </trkpt>
      <trkpt lat="48.75652" lon="7.34423">
        <ele>350.978027</ele>
        <time>2010-08-10T17:14:34Z</time>
      </trkpt>
      <trkpt lat="48.75662" lon="7.34449">
        <ele>349.665527</ele>
        <time>2010-08-10T17:14:37Z</time>
      </trkpt>
      <trkpt lat="48.75672" lon="7.3447">
        <ele>347.720215</ele>
        <time>2010-08-10T17:14:39Z</time>
      </trkpt>
      <trkpt lat="48.75682" lon="7.34491">
        <ele>346.095215</ele>
        <time>2010-08-10T17:14:42Z</time>
      </trkpt>
      <trkpt lat="48.75692" lon="7.34508">
        <ele>344.64209</ele>
        <time>2010-08-10T17:14:45Z</time>
      </trkpt>
      <trkpt lat="48.75705" lon="7.34521">
        <ele>343.024902</ele>
        <time>2010-08-10T17:14:48Z</time>
      </trkpt>
      <trkpt lat="48.7572" lon="7.34529">
        <ele>340.970215</ele>
        <time>2010-08-10T17:14:51Z</time>
      </trkpt>
      <trkpt lat="48.75735" lon="7.34537">
        <ele>337.095215</ele>
        <time>2010-08-10T17:14:54Z</time>
      </trkpt>
      <trkpt lat="48.7575" lon="7.34538">
        <ele>332.688965</ele>
        <time>2010-08-10T17:14:58Z</time>
      </trkpt>
      <trkpt lat="48.75766" lon="7.34548">
        <ele>330.501465</ele>
        <time>2010-08-10T17:15:01Z</time>
      </trkpt>
      <trkpt lat="48.75781" lon="7.34555">
        <ele>328.978027</ele>
        <time>2010-08-10T17:15:04Z</time>
      </trkpt>
      <trkpt lat="48.75797" lon="7.34559">
        <ele>328.931152</ele>
        <time>2010-08-10T17:15:09Z</time>
      </trkpt>
      <trkpt lat="48.75809" lon="7.34582">
        <ele>326.70459</ele>
        <time>2010-08-10T17:15:12Z</time>
      </trkpt>
      <trkpt lat="48.75821" lon="7.34595">
        <ele>328.446777</ele>
        <time>2010-08-10T17:15:15Z</time>
      </trkpt>
      <trkpt lat="48.75834" lon="7.34605">
        <ele>327.181152</ele>
        <time>2010-08-10T17:15:20Z</time>
      </trkpt>
      <trkpt lat="48.75846" lon="7.34596">
        <ele>328.063965</ele>
        <time>2010-08-10T17:15:53Z</time>
      </trkpt>
      <trkpt lat="48.75859" lon="7.34586">
        <ele>329.618652</ele>
        <time>2010-08-10T17:17:41Z</time>
      </trkpt>
      <trkpt lat="48.75871" lon="7.34576">
        <ele>332.228027</ele>
        <time>2010-08-10T17:17:53Z</time>
      </trkpt>
      <trkpt lat="48.75885" lon="7.3457">
        <ele>333.149902</ele>
        <time>2010-08-10T17:18:00Z</time>
      </trkpt>
      <trkpt lat="48.75898" lon="7.34558">
        <ele>331.720215</ele>
        <time>2010-08-10T17:18:05Z</time>
      </trkpt>
      <trkpt lat="48.7591" lon="7.34545">
        <ele>329.98584</ele>
        <time>2010-08-10T17:18:09Z</time>
      </trkpt>
      <trkpt lat="48.75921" lon="7.34529">
        <ele>328.524902</ele>
        <time>2010-08-10T17:18:12Z</time>
      </trkpt>
      <trkpt lat="48.75931" lon="7.34514">
        <ele>327.36084</ele>
        <time>2010-08-10T17:18:15Z</time>
      </trkpt>
      <trkpt lat="48.75942" lon="7.34501">
        <ele>326.26709</ele>
        <time>2010-08-10T17:18:18Z</time>
      </trkpt>
      <trkpt lat="48.75954" lon="7.3448">
        <ele>324.720215</ele>
        <time>2010-08-10T17:18:21Z</time>
      </trkpt>
      <trkpt lat="48.75966" lon="7.34461">
        <ele>325.040527</ele>
        <time>2010-08-10T17:18:24Z</time>
      </trkpt>
      <trkpt lat="48.75977" lon="7.34437">
        <ele>323.634277</ele>
        <time>2010-08-10T17:18:27Z</time>
      </trkpt>
      <trkpt lat="48.75989" lon="7.34423">
        <ele>322.212402</ele>
        <time>2010-08-10T17:18:31Z</time>
      </trkpt>
      <trkpt lat="48.76001" lon="7.34414">
        <ele>320.39209</ele>
        <time>2010-08-10T17:18:33Z</time>
      </trkpt>
      <trkpt lat="48.76013" lon="7.34394">
        <ele>318.962402</ele>
        <time>2010-08-10T17:18:36Z</time>
      </trkpt>
      <trkpt lat="48.76024" lon="7.34377">
        <ele>317.89209</ele>
        <time>2010-08-10T17:18:39Z</time>
      </trkpt>
      <trkpt lat="48.76031" lon="7.34354">
        <ele>316.040527</ele>
        <time>2010-08-10T17:18:42Z</time>
      </trkpt>
      <trkpt lat="48.76038" lon="7.34333">
        <ele>314.61084</ele>
        <time>2010-08-10T17:18:45Z</time>
      </trkpt>
      <trkpt lat="48.76046" lon="7.3431">
        <ele>313.946777</ele>
        <time>2010-08-10T17:18:48Z</time>
      </trkpt>
      <trkpt lat="48.76053" lon="7.34286">
        <ele>312.353027</ele>
        <time>2010-08-10T17:18:51Z</time>
      </trkpt>
      <trkpt lat="48.76059" lon="7.34263">
        <ele>311.188965</ele>
        <time>2010-08-10T17:18:54Z</time>
      </trkpt>
      <trkpt lat="48.76063" lon="7.34241">
        <ele>310.493652</ele>
        <time>2010-08-10T17:18:57Z</time>
      </trkpt>
      <trkpt lat="48.76065" lon="7.34217">
        <ele>310.899902</ele>
        <time>2010-08-10T17:19:01Z</time>
      </trkpt>
      <trkpt lat="48.76065" lon="7.34195">
        <ele>312.212402</ele>
        <time>2010-08-10T17:19:06Z</time>
      </trkpt>
      <trkpt lat="48.76064" lon="7.34175">
        <ele>313.938965</ele>
        <time>2010-08-10T17:19:14Z</time>
      </trkpt>
      <trkpt lat="48.76062" lon="7.34155">
        <ele>319.251465</ele>
        <time>2010-08-10T17:19:25Z</time>
      </trkpt>
      <trkpt lat="48.76062" lon="7.34136">
        <ele>325.353027</ele>
        <time>2010-08-10T17:19:35Z</time>
      </trkpt>
      <trkpt lat="48.76061" lon="7.34114">
        <ele>331.17334</ele>
        <time>2010-08-10T17:19:43Z</time>
      </trkpt>
      <trkpt lat="48.76064" lon="7.34094">
        <ele>334.353027</ele>
        <time>2010-08-10T17:19:49Z</time>
      </trkpt>
      <trkpt lat="48.76069" lon="7.34074">
        <ele>338.071777</ele>
        <time>2010-08-10T17:19:53Z</time>
      </trkpt>
      <trkpt lat="48.7607" lon="7.34051">
        <ele>341.446777</ele>
        <time>2010-08-10T17:19:57Z</time>
      </trkpt>
      <trkpt lat="48.7607" lon="7.3403">
        <ele>343.45459</ele>
        <time>2010-08-10T17:20:01Z</time>
      </trkpt>
      <trkpt lat="48.76069" lon="7.34004">
        <ele>343.657715</ele>
        <time>2010-08-10T17:20:05Z</time>
      </trkpt>
      <trkpt lat="48.76073" lon="7.33978">
        <ele>344.321777</ele>
        <time>2010-08-10T17:20:09Z</time>
      </trkpt>
      <trkpt lat="48.76074" lon="7.33954">
        <ele>346.821777</ele>
        <time>2010-08-10T17:20:13Z</time>
      </trkpt>
      <trkpt lat="48.76074" lon="7.33933">
        <ele>348.89209</ele>
        <time>2010-08-10T17:20:16Z</time>
      </trkpt>
      <trkpt lat="48.76073" lon="7.33907">
        <ele>346.11084</ele>
        <time>2010-08-10T17:20:19Z</time>
      </trkpt>
      <trkpt lat="48.76073" lon="7.33883">
        <ele>345.45459</ele>
        <time>2010-08-10T17:20:23Z</time>
      </trkpt>
      <trkpt lat="48.76075" lon="7.3386">
        <ele>346.071777</ele>
        <time>2010-08-10T17:20:27Z</time>
      </trkpt>
      <trkpt lat="48.76074" lon="7.33829">
        <ele>343.962402</ele>
        <time>2010-08-10T17:20:31Z</time>
      </trkpt>
      <trkpt lat="48.76072" lon="7.33807">
        <ele>341.071777</ele>
        <time>2010-08-10T17:20:35Z</time>
      </trkpt>
      <trkpt lat="48.76063" lon="7.33825">
        <ele>336.688965</ele>
        <time>2010-08-10T17:21:23Z</time>
      </trkpt>
      <trkpt lat="48.76062" lon="7.33805">
        <ele>332.376465</ele>
        <time>2010-08-10T17:21:50Z</time>
      </trkpt>
      <trkpt lat="48.7607" lon="7.33824">
        <ele>327.813965</ele>
        <time>2010-08-10T17:22:01Z</time>
      </trkpt>
      <trkpt lat="48.76078" lon="7.33844">
        <ele>325.212402</ele>
        <time>2010-08-10T17:22:05Z</time>
      </trkpt>
      <trkpt lat="48.76082" lon="7.33865">
        <ele>322.73584</ele>
        <time>2010-08-10T17:22:10Z</time>
      </trkpt>
      <trkpt lat="48.76083" lon="7.33887">
        <ele>319.67334</ele>
        <time>2010-08-10T17:22:18Z</time>
      </trkpt>
      <trkpt lat="48.76087" lon="7.33907">
        <ele>317.407715</ele>
        <time>2010-08-10T17:22:22Z</time>
      </trkpt>
      <trkpt lat="48.7609" lon="7.33928">
        <ele>315.853027</ele>
        <time>2010-08-10T17:22:26Z</time>
      </trkpt>
      <trkpt lat="48.76094" lon="7.33952">
        <ele>313.728027</ele>
        <time>2010-08-10T17:22:30Z</time>
      </trkpt>
      <trkpt lat="48.76097" lon="7.33974">
        <ele>312.79834</ele>
        <time>2010-08-10T17:22:34Z</time>
      </trkpt>
      <trkpt lat="48.76106" lon="7.33994">
        <ele>310.353027</ele>
        <time>2010-08-10T17:22:37Z</time>
      </trkpt>
      <trkpt lat="48.7611" lon="7.34015">
        <ele>307.813965</ele>
        <time>2010-08-10T17:22:40Z</time>
      </trkpt>
      <trkpt lat="48.76117" lon="7.34037">
        <ele>305.603027</ele>
        <time>2010-08-10T17:22:43Z</time>
      </trkpt>
      <trkpt lat="48.76124" lon="7.3406">
        <ele>304.603027</ele>
        <time>2010-08-10T17:22:46Z</time>
      </trkpt>
      <trkpt lat="48.76131" lon="7.34084">
        <ele>301.946777</ele>
        <time>2010-08-10T17:22:49Z</time>
      </trkpt>
      <trkpt lat="48.76137" lon="7.34111">
        <ele>299.32959</ele>
        <time>2010-08-10T17:22:52Z</time>
      </trkpt>
      <trkpt lat="48.76142" lon="7.34132">
        <ele>297.876465</ele>
        <time>2010-08-10T17:22:55Z</time>
      </trkpt>
      <trkpt lat="48.76146" lon="7.34159">
        <ele>295.712402</ele>
        <time>2010-08-10T17:22:58Z</time>
      </trkpt>
      <trkpt lat="48.76151" lon="7.34187">
        <ele>296.962402</ele>
        <time>2010-08-10T17:23:01Z</time>
      </trkpt>
      <trkpt lat="48.76157" lon="7.34206">
        <ele>296.853027</ele>
        <time>2010-08-10T17:23:03Z</time>
      </trkpt>
      <trkpt lat="48.76162" lon="7.34226">
        <ele>296.95459</ele>
        <time>2010-08-10T17:23:05Z</time>
      </trkpt>
      <trkpt lat="48.76166" lon="7.34255">
        <ele>297.17334</ele>
        <time>2010-08-10T17:23:08Z</time>
      </trkpt>
      <trkpt lat="48.76166" lon="7.34282">
        <ele>297.07959</ele>
        <time>2010-08-10T17:23:11Z</time>
      </trkpt>
      <trkpt lat="48.76166" lon="7.34305">
        <ele>296.603027</ele>
        <time>2010-08-10T17:23:13Z</time>
      </trkpt>
      <trkpt lat="48.76168" lon="7.34328">
        <ele>295.884277</ele>
        <time>2010-08-10T17:23:16Z</time>
      </trkpt>
      <trkpt lat="48.76174" lon="7.34347">
        <ele>290.306152</ele>
        <time>2010-08-10T17:23:19Z</time>
      </trkpt>
      <trkpt lat="48.76174" lon="7.34375">
        <ele>288.321777</ele>
        <time>2010-08-10T17:23:22Z</time>
      </trkpt>
      <trkpt lat="48.76172" lon="7.34396">
        <ele>286.649902</ele>
        <time>2010-08-10T17:23:24Z</time>
      </trkpt>
      <trkpt lat="48.76177" lon="7.3442">
        <ele>284.587402</ele>
        <time>2010-08-10T17:23:26Z</time>
      </trkpt>
      <trkpt lat="48.76178" lon="7.34443">
        <ele>282.524902</ele>
        <time>2010-08-10T17:23:28Z</time>
      </trkpt>
      <trkpt lat="48.76175" lon="7.34463">
        <ele>280.438965</ele>
        <time>2010-08-10T17:23:30Z</time>
      </trkpt>
      <trkpt lat="48.76164" lon="7.34489">
        <ele>278.42334</ele>
        <time>2010-08-10T17:23:33Z</time>
      </trkpt>
      <trkpt lat="48.76155" lon="7.34506">
        <ele>277.087402</ele>
        <time>2010-08-10T17:23:35Z</time>
      </trkpt>
      <trkpt lat="48.76146" lon="7.34529">
        <ele>276.001465</ele>
        <time>2010-08-10T17:23:37Z</time>
      </trkpt>
      <trkpt lat="48.76136" lon="7.34548">
        <ele>274.696777</ele>
        <time>2010-08-10T17:23:39Z</time>
      </trkpt>
      <trkpt lat="48.76129" lon="7.34567">
        <ele>273.868652</ele>
        <time>2010-08-10T17:23:41Z</time>
      </trkpt>
      <trkpt lat="48.76117" lon="7.34586">
        <ele>272.993652</ele>
        <time>2010-08-10T17:23:43Z</time>
      </trkpt>
      <trkpt lat="48.76105" lon="7.34603">
        <ele>272.01709</ele>
        <time>2010-08-10T17:23:45Z</time>
      </trkpt>
      <trkpt lat="48.76093" lon="7.34622">
        <ele>270.98584</ele>
        <time>2010-08-10T17:23:47Z</time>
      </trkpt>
      <trkpt lat="48.76085" lon="7.34643">
        <ele>270.087402</ele>
        <time>2010-08-10T17:23:49Z</time>
      </trkpt>
      <trkpt lat="48.7607" lon="7.3467">
        <ele>268.962402</ele>
        <time>2010-08-10T17:23:52Z</time>
      </trkpt>
      <trkpt lat="48.76063" lon="7.34696">
        <ele>268.188965</ele>
        <time>2010-08-10T17:23:54Z</time>
      </trkpt>
      <trkpt lat="48.76066" lon="7.34726">
        <ele>267.056152</ele>
        <time>2010-08-10T17:23:56Z</time>
      </trkpt>
      <trkpt lat="48.76066" lon="7.34748">
        <ele>264.970215</ele>
        <time>2010-08-10T17:24:01Z</time>
      </trkpt>
      <trkpt lat="48.76065" lon="7.34774">
        <ele>264.759277</ele>
        <time>2010-08-10T17:24:05Z</time>
      </trkpt>
      <trkpt lat="48.76064" lon="7.34801">
        <ele>264.470215</ele>
        <time>2010-08-10T17:24:08Z</time>
      </trkpt>
      <trkpt lat="48.76053" lon="7.34816">
        <ele>262.67334</ele>
        <time>2010-08-10T17:24:10Z</time>
      </trkpt>
      <trkpt lat="48.76043" lon="7.34838">
        <ele>261.446777</ele>
        <time>2010-08-10T17:24:13Z</time>
      </trkpt>
      <trkpt lat="48.76026" lon="7.34844">
        <ele>257.54834</ele>
        <time>2010-08-10T17:24:15Z</time>
      </trkpt>
      <trkpt lat="48.76008" lon="7.34848">
        <ele>255.633545</ele>
        <time>2010-08-10T17:24:18Z</time>
      </trkpt>
      <trkpt lat="48.75991" lon="7.34854">
        <ele>253.446045</ele>
        <time>2010-08-10T17:24:21Z</time>
      </trkpt>
      <trkpt lat="48.75978" lon="7.34863">
        <ele>252.965576</ele>
        <time>2010-08-10T17:24:24Z</time>
      </trkpt>
      <trkpt lat="48.75965" lon="7.34874">
        <ele>252.49292</ele>
        <time>2010-08-10T17:24:27Z</time>
      </trkpt>
      <trkpt lat="48.75953" lon="7.34888">
        <ele>252.485107</ele>
        <time>2010-08-10T17:24:30Z</time>
      </trkpt>
      <trkpt lat="48.75942" lon="7.34903">
        <ele>252.61792</ele>
        <time>2010-08-10T17:24:33Z</time>
      </trkpt>
      <trkpt lat="48.75932" lon="7.34919">
        <ele>253.199951</ele>
        <time>2010-08-10T17:24:36Z</time>
      </trkpt>
      <trkpt lat="48.75923" lon="7.34937">
        <ele>254.258545</ele>
        <time>2010-08-10T17:24:39Z</time>
      </trkpt>
      <trkpt lat="48.75917" lon="7.34956">
        <ele>253.614014</ele>
        <time>2010-08-10T17:24:42Z</time>
      </trkpt>
      <trkpt lat="48.75909" lon="7.34978">
        <ele>253.77417</ele>
        <time>2010-08-10T17:24:45Z</time>
      </trkpt>
      <trkpt lat="48.75902" lon="7.35">
        <ele>253.71167</ele>
        <time>2010-08-10T17:24:48Z</time>
      </trkpt>
      <trkpt lat="48.75894" lon="7.35022">
        <ele>251.656982</ele>
        <time>2010-08-10T17:24:51Z</time>
      </trkpt>
      <trkpt lat="48.75884" lon="7.3504">
        <ele>243.809326</ele>
        <time>2010-08-10T17:24:54Z</time>
      </trkpt>
      <trkpt lat="48.7587" lon="7.35056">
        <ele>239.481201</ele>
        <time>2010-08-10T17:24:57Z</time>
      </trkpt>
      <trkpt lat="48.75856" lon="7.35067">
        <ele>236.52417</ele>
        <time>2010-08-10T17:25:00Z</time>
      </trkpt>
      <trkpt lat="48.75843" lon="7.35073">
        <ele>234.656982</ele>
        <time>2010-08-10T17:25:03Z</time>
      </trkpt>
      <trkpt lat="48.75829" lon="7.35076">
        <ele>234.387451</ele>
        <time>2010-08-10T17:25:06Z</time>
      </trkpt>
      <trkpt lat="48.75812" lon="7.35077">
        <ele>233.18042</ele>
        <time>2010-08-10T17:25:10Z</time>
      </trkpt>
      <trkpt lat="48.75797" lon="7.35081">
        <ele>232.727295</ele>
        <time>2010-08-10T17:25:14Z</time>
      </trkpt>
      <trkpt lat="48.75783" lon="7.35089">
        <ele>232.688232</ele>
        <time>2010-08-10T17:25:18Z</time>
      </trkpt>
      <trkpt lat="48.7577" lon="7.35098">
        <ele>231.746826</ele>
        <time>2010-08-10T17:25:22Z</time>
      </trkpt>
      <trkpt lat="48.75757" lon="7.35107">
        <ele>231.832764</ele>
        <time>2010-08-10T17:25:26Z</time>
      </trkpt>
      <trkpt lat="48.75745" lon="7.35116">
        <ele>231.828857</ele>
        <time>2010-08-10T17:25:30Z</time>
      </trkpt>
      <trkpt lat="48.7573" lon="7.35127">
        <ele>232.567139</ele>
        <time>2010-08-10T17:25:35Z</time>
      </trkpt>
      <trkpt lat="48.75715" lon="7.35138">
        <ele>233.356201</ele>
        <time>2010-08-10T17:25:40Z</time>
      </trkpt>
      <trkpt lat="48.757" lon="7.35145">
        <ele>233.801514</ele>
        <time>2010-08-10T17:25:44Z</time>
      </trkpt>
      <trkpt lat="48.75685" lon="7.35146">
        <ele>233.489014</ele>
        <time>2010-08-10T17:25:48Z</time>
      </trkpt>
      <trkpt lat="48.7567" lon="7.35144">
        <ele>233.172607</ele>
        <time>2010-08-10T17:25:52Z</time>
      </trkpt>
      <trkpt lat="48.75654" lon="7.35142">
        <ele>232.664795</ele>
        <time>2010-08-10T17:25:56Z</time>
      </trkpt>
      <trkpt lat="48.75639" lon="7.35143">
        <ele>232.199951</ele>
        <time>2010-08-10T17:26:01Z</time>
      </trkpt>
      <trkpt lat="48.7563" lon="7.35166">
        <ele>231.153076</ele>
        <time>2010-08-10T17:26:06Z</time>
      </trkpt>
      <trkpt lat="48.75623" lon="7.35187">
        <ele>230.49292</ele>
        <time>2010-08-10T17:26:09Z</time>
      </trkpt>
      <trkpt lat="48.75611" lon="7.35205">
        <ele>229.188232</ele>
        <time>2010-08-10T17:26:12Z</time>
      </trkpt>
      <trkpt lat="48.75594" lon="7.35218">
        <ele>228.168701</ele>
        <time>2010-08-10T17:26:15Z</time>
      </trkpt>
      <trkpt lat="48.75581" lon="7.35226">
        <ele>227.21167</ele>
        <time>2010-08-10T17:26:17Z</time>
      </trkpt>
      <trkpt lat="48.75561" lon="7.35236">
        <ele>226.567139</ele>
        <time>2010-08-10T17:26:20Z</time>
      </trkpt>
      <trkpt lat="48.75543" lon="7.35242">
        <ele>226.71167</ele>
        <time>2010-08-10T17:26:23Z</time>
      </trkpt>
      <trkpt lat="48.75526" lon="7.35246">
        <ele>226.942139</ele>
        <time>2010-08-10T17:26:26Z</time>
      </trkpt>
      <trkpt lat="48.7551" lon="7.35248">
        <ele>227.090576</ele>
        <time>2010-08-10T17:26:29Z</time>
      </trkpt>
      <trkpt lat="48.75494" lon="7.35254">
        <ele>227.531982</ele>
        <time>2010-08-10T17:26:32Z</time>
      </trkpt>
      <trkpt lat="48.75478" lon="7.3526">
        <ele>227.864014</ele>
        <time>2010-08-10T17:26:35Z</time>
      </trkpt>
      <trkpt lat="48.75465" lon="7.35265">
        <ele>228.391357</ele>
        <time>2010-08-10T17:26:38Z</time>
      </trkpt>
      <trkpt lat="48.75451" lon="7.35271">
        <ele>228.938232</ele>
        <time>2010-08-10T17:26:41Z</time>
      </trkpt>
      <trkpt lat="48.75436" lon="7.35277">
        <ele>230.110107</ele>
        <time>2010-08-10T17:26:45Z</time>
      </trkpt>
      <trkpt lat="48.7542" lon="7.35283">
        <ele>231.453857</ele>
        <time>2010-08-10T17:26:49Z</time>
      </trkpt>
      <trkpt lat="48.75405" lon="7.35289">
        <ele>232.660889</ele>
        <time>2010-08-10T17:26:53Z</time>
      </trkpt>
      <trkpt lat="48.7539" lon="7.35294">
        <ele>233.528076</ele>
        <time>2010-08-10T17:26:58Z</time>
      </trkpt>
      <trkpt lat="48.75377" lon="7.35298">
        <ele>234.24292</ele>
        <time>2010-08-10T17:27:02Z</time>
      </trkpt>
      <trkpt lat="48.75361" lon="7.35301">
        <ele>236.969482</ele>
        <time>2010-08-10T17:27:07Z</time>
      </trkpt>
      <trkpt lat="48.75346" lon="7.35303">
        <ele>238.090576</ele>
        <time>2010-08-10T17:27:12Z</time>
      </trkpt>
      <trkpt lat="48.7533" lon="7.35306">
        <ele>238.582764</ele>
        <time>2010-08-10T17:27:17Z</time>
      </trkpt>
      <trkpt lat="48.75314" lon="7.35308">
        <ele>239.004639</ele>
        <time>2010-08-10T17:27:22Z</time>
      </trkpt>
      <trkpt lat="48.75301" lon="7.35309">
        <ele>238.766357</ele>
        <time>2010-08-10T17:27:26Z</time>
      </trkpt>
      <trkpt lat="48.75285" lon="7.35307">
        <ele>238.016357</ele>
        <time>2010-08-10T17:27:30Z</time>
      </trkpt>
      <trkpt lat="48.75267" lon="7.35304">
        <ele>237.438232</ele>
        <time>2010-08-10T17:27:34Z</time>
      </trkpt>
      <trkpt lat="48.75253" lon="7.35302">
        <ele>237.332764</ele>
        <time>2010-08-10T17:27:37Z</time>
      </trkpt>
      <trkpt lat="48.75237" lon="7.353">
        <ele>236.567139</ele>
        <time>2010-08-10T17:27:40Z</time>
      </trkpt>
      <trkpt lat="48.75219" lon="7.35298">
        <ele>235.422607</ele>
        <time>2010-08-10T17:27:43Z</time>
      </trkpt>
      <trkpt lat="48.75205" lon="7.35296">
        <ele>234.074951</ele>
        <time>2010-08-10T17:27:45Z</time>
      </trkpt>
      <trkpt lat="48.7519" lon="7.35296">
        <ele>232.977295</ele>
        <time>2010-08-10T17:27:47Z</time>
      </trkpt>
      <trkpt lat="48.75174" lon="7.35295">
        <ele>231.594482</ele>
        <time>2010-08-10T17:27:49Z</time>
      </trkpt>
      <trkpt lat="48.75157" lon="7.35293">
        <ele>230.090576</ele>
        <time>2010-08-10T17:27:51Z</time>
      </trkpt>
      <trkpt lat="48.75139" lon="7.35292">
        <ele>228.64917</ele>
        <time>2010-08-10T17:27:53Z</time>
      </trkpt>
      <trkpt lat="48.75121" lon="7.3529">
        <ele>227.71167</ele>
        <time>2010-08-10T17:27:55Z</time>
      </trkpt>
      <trkpt lat="48.75103" lon="7.35289">
        <ele>227.000732</ele>
        <time>2010-08-10T17:27:57Z</time>
      </trkpt>
      <trkpt lat="48.75085" lon="7.35288">
        <ele>226.813232</ele>
        <time>2010-08-10T17:27:59Z</time>
      </trkpt>
      <trkpt lat="48.75069" lon="7.35288">
        <ele>226.071045</ele>
        <time>2010-08-10T17:28:01Z</time>
      </trkpt>
      <trkpt lat="48.75052" lon="7.35291">
        <ele>225.246826</ele>
        <time>2010-08-10T17:28:03Z</time>
      </trkpt>
      <trkpt lat="48.75036" lon="7.35296">
        <ele>224.61792</ele>
        <time>2010-08-10T17:28:05Z</time>
      </trkpt>
      <trkpt lat="48.7502" lon="7.35303">
        <ele>223.719482</ele>
        <time>2010-08-10T17:28:07Z</time>
      </trkpt>
      <trkpt lat="48.75005" lon="7.35311">
        <ele>223.387451</ele>
        <time>2010-08-10T17:28:09Z</time>
      </trkpt>
      <trkpt lat="48.7499" lon="7.35318">
        <ele>222.922607</ele>
        <time>2010-08-10T17:28:11Z</time>
      </trkpt>
      <trkpt lat="48.74974" lon="7.35325">
        <ele>222.33667</ele>
        <time>2010-08-10T17:28:13Z</time>
      </trkpt>
      <trkpt lat="48.7496" lon="7.35332">
        <ele>222.153076</ele>
        <time>2010-08-10T17:28:15Z</time>
      </trkpt>
      <trkpt lat="48.74947" lon="7.3534">
        <ele>222.012451</ele>
        <time>2010-08-10T17:28:17Z</time>
      </trkpt>
      <trkpt lat="48.74934" lon="7.3535">
        <ele>222.192139</ele>
        <time>2010-08-10T17:28:19Z</time>
      </trkpt>
      <trkpt lat="48.74921" lon="7.35359">
        <ele>222.750732</ele>
        <time>2010-08-10T17:28:21Z</time>
      </trkpt>
      <trkpt lat="48.74908" lon="7.35368">
        <ele>222.891357</ele>
        <time>2010-08-10T17:28:23Z</time>
      </trkpt>
      <trkpt lat="48.74894" lon="7.35376">
        <ele>222.965576</ele>
        <time>2010-08-10T17:28:25Z</time>
      </trkpt>
      <trkpt lat="48.74882" lon="7.35386">
        <ele>222.949951</ele>
        <time>2010-08-10T17:28:27Z</time>
      </trkpt>
      <trkpt lat="48.7487" lon="7.35397">
        <ele>222.688232</ele>
        <time>2010-08-10T17:28:29Z</time>
      </trkpt>
      <trkpt lat="48.74859" lon="7.35411">
        <ele>222.321045</ele>
        <time>2010-08-10T17:28:31Z</time>
      </trkpt>
      <trkpt lat="48.74848" lon="7.35423">
        <ele>221.821045</ele>
        <time>2010-08-10T17:28:33Z</time>
      </trkpt>
      <trkpt lat="48.74837" lon="7.35437">
        <ele>221.74292</ele>
        <time>2010-08-10T17:28:35Z</time>
      </trkpt>
      <trkpt lat="48.74827" lon="7.35451">
        <ele>221.258545</ele>
        <time>2010-08-10T17:28:37Z</time>
      </trkpt>
      <trkpt lat="48.74817" lon="7.35465">
        <ele>220.891357</ele>
        <time>2010-08-10T17:28:39Z</time>
      </trkpt>
      <trkpt lat="48.74806" lon="7.35479">
        <ele>220.071045</ele>
        <time>2010-08-10T17:28:41Z</time>
      </trkpt>
      <trkpt lat="48.74794" lon="7.35493">
        <ele>219.074951</ele>
        <time>2010-08-10T17:28:43Z</time>
      </trkpt>
      <trkpt lat="48.74784" lon="7.35505">
        <ele>217.96167</ele>
        <time>2010-08-10T17:28:45Z</time>
      </trkpt>
      <trkpt lat="48.74773" lon="7.35518">
        <ele>216.508545</ele>
        <time>2010-08-10T17:28:47Z</time>
      </trkpt>
      <trkpt lat="48.7476" lon="7.35531">
        <ele>215.33667</ele>
        <time>2010-08-10T17:28:49Z</time>
      </trkpt>
      <trkpt lat="48.74748" lon="7.35546">
        <ele>213.973389</ele>
        <time>2010-08-10T17:28:51Z</time>
      </trkpt>
      <trkpt lat="48.74735" lon="7.35562">
        <ele>213.063232</ele>
        <time>2010-08-10T17:28:53Z</time>
      </trkpt>
      <trkpt lat="48.74724" lon="7.35576">
        <ele>212.035889</ele>
        <time>2010-08-10T17:28:55Z</time>
      </trkpt>
      <trkpt lat="48.74711" lon="7.35593">
        <ele>210.715576</ele>
        <time>2010-08-10T17:28:57Z</time>
      </trkpt>
      <trkpt lat="48.74699" lon="7.35609">
        <ele>209.125732</ele>
        <time>2010-08-10T17:28:59Z</time>
      </trkpt>
      <trkpt lat="48.74686" lon="7.35624">
        <ele>207.520264</ele>
        <time>2010-08-10T17:29:01Z</time>
      </trkpt>
      <trkpt lat="48.74674" lon="7.35635">
        <ele>205.89917</ele>
        <time>2010-08-10T17:29:03Z</time>
      </trkpt>
      <trkpt lat="48.74657" lon="7.35644">
        <ele>204.684326</ele>
        <time>2010-08-10T17:29:06Z</time>
      </trkpt>
      <trkpt lat="48.74641" lon="7.35641">
        <ele>204.08667</ele>
        <time>2010-08-10T17:29:10Z</time>
      </trkpt>
      <trkpt lat="48.74627" lon="7.35638">
        <ele>203.348389</ele>
        <time>2010-08-10T17:29:13Z</time>
      </trkpt>
      <trkpt lat="48.7461" lon="7.35634">
        <ele>203.203857</ele>
        <time>2010-08-10T17:29:16Z</time>
      </trkpt>
      <trkpt lat="48.74593" lon="7.35622">
        <ele>202.860107</ele>
        <time>2010-08-10T17:29:19Z</time>
      </trkpt>
      <trkpt lat="48.74575" lon="7.35615">
        <ele>202.828857</ele>
        <time>2010-08-10T17:29:22Z</time>
      </trkpt>
      <trkpt lat="48.74561" lon="7.35608">
        <ele>202.090576</ele>
        <time>2010-08-10T17:29:24Z</time>
      </trkpt>
      <trkpt lat="48.74546" lon="7.35598">
        <ele>199.906982</ele>
        <time>2010-08-10T17:29:27Z</time>
      </trkpt>
      <trkpt lat="48.74535" lon="7.35588">
        <ele>198.621826</ele>
        <time>2010-08-10T17:29:31Z</time>
      </trkpt>
      <trkpt lat="48.74522" lon="7.35574">
        <ele>197.840576</ele>
        <time>2010-08-10T17:29:41Z</time>
      </trkpt>
      <trkpt lat="48.74507" lon="7.3558">
        <ele>196.891357</ele>
        <time>2010-08-10T17:29:44Z</time>
      </trkpt>
      <trkpt lat="48.7449" lon="7.35587">
        <ele>196.324951</ele>
        <time>2010-08-10T17:29:47Z</time>
      </trkpt>
      <trkpt lat="48.74472" lon="7.35597">
        <ele>195.934326</ele>
        <time>2010-08-10T17:29:50Z</time>
      </trkpt>
      <trkpt lat="48.74455" lon="7.35606">
        <ele>195.520264</ele>
        <time>2010-08-10T17:29:53Z</time>
      </trkpt>
      <trkpt lat="48.74437" lon="7.35616">
        <ele>194.910889</ele>
        <time>2010-08-10T17:29:56Z</time>
      </trkpt>
      <trkpt lat="48.74419" lon="7.3563">
        <ele>194.746826</ele>
        <time>2010-08-10T17:29:59Z</time>
      </trkpt>
      <trkpt lat="48.74403" lon="7.35645">
        <ele>194.199951</ele>
        <time>2010-08-10T17:30:02Z</time>
      </trkpt>
      <trkpt lat="48.74386" lon="7.35662">
        <ele>193.582764</ele>
        <time>2010-08-10T17:30:05Z</time>
      </trkpt>
      <trkpt lat="48.74374" lon="7.35672">
        <ele>193.020264</ele>
        <time>2010-08-10T17:30:07Z</time>
      </trkpt>
      <trkpt lat="48.74362" lon="7.35683">
        <ele>192.125732</ele>
        <time>2010-08-10T17:30:09Z</time>
      </trkpt>
      <trkpt lat="48.74348" lon="7.35691">
        <ele>191.406982</ele>
        <time>2010-08-10T17:30:11Z</time>
      </trkpt>
      <trkpt lat="48.74334" lon="7.35696">
        <ele>190.817139</ele>
        <time>2010-08-10T17:30:13Z</time>
      </trkpt>
      <trkpt lat="48.74319" lon="7.35698">
        <ele>190.74292</ele>
        <time>2010-08-10T17:30:15Z</time>
      </trkpt>
      <trkpt lat="48.74304" lon="7.35699">
        <ele>189.633545</ele>
        <time>2010-08-10T17:30:17Z</time>
      </trkpt>
      <trkpt lat="48.74289" lon="7.35701">
        <ele>189.137451</ele>
        <time>2010-08-10T17:30:19Z</time>
      </trkpt>
      <trkpt lat="48.74275" lon="7.35704">
        <ele>188.789795</ele>
        <time>2010-08-10T17:30:21Z</time>
      </trkpt>
      <trkpt lat="48.7417" lon="7.35889">
        <ele>190.207764</ele>
        <time>2010-08-10T17:30:27Z</time>
      </trkpt>
    </trkseg>
  </trk>
</gpx>